<?xml version="1.0" encoding="utf-8"?>
<gpx xmlns:xsi="http://www.w3.org/2001/XMLSchema-instance" xmlns:xsd="http://www.w3.org/2001/XMLSchema" version="1.1" creator="Shapelink.com" xmlns="http://www.topografix.com/GPX/1/1" xmlns:gpxtpx="http://www.garmin.com/xmlschemas/TrackPointExtension/v1">
  <metadata>
    <name>Sykling 45.61 km, 2017-09-09</name>
    <desc></desc>
    <author><name>Jörgen Larsson</name></author> 
    <time>2017-09-09T08:31:40Z</time>
  </metadata>
  <trk>
    <name>Sykling 45.61 km, 2017-09-09</name>
    <trkseg>
      <trkpt lat="59.204668371206" lon="17.753965246384">
        <ele>224.8</ele>
        <time>2017-09-09T08:31:40Z</time>
      </trkpt>
      <trkpt lat="59.204833746093" lon="17.754878622027">
        <ele>224.6</ele>
        <time>2017-09-09T08:31:51Z</time>
      </trkpt>
      <trkpt lat="59.204833746093" lon="17.754878622027">
        <ele>224.6</ele>
        <time>2017-09-09T08:31:52Z</time>
      </trkpt>
      <trkpt lat="59.204884708045" lon="17.755399054198">
        <ele>224.4</ele>
        <time>2017-09-09T08:31:55Z</time>
      </trkpt>
      <trkpt lat="59.205019572816" lon="17.755550934226">
        <ele>223.8</ele>
        <time>2017-09-09T08:31:59Z</time>
      </trkpt>
      <trkpt lat="59.2052824292" lon="17.755464516837">
        <ele>223</ele>
        <time>2017-09-09T08:32:03Z</time>
      </trkpt>
      <trkpt lat="59.205355519368" lon="17.755423613165">
        <ele>223</ele>
        <time>2017-09-09T08:32:04Z</time>
      </trkpt>
      <trkpt lat="59.205596079898" lon="17.75528992186">
        <ele>222</ele>
        <time>2017-09-09T08:32:07Z</time>
      </trkpt>
      <trkpt lat="59.205951221001" lon="17.755086157871">
        <ele>219.4</ele>
        <time>2017-09-09T08:32:11Z</time>
      </trkpt>
      <trkpt lat="59.206329496148" lon="17.754862277322">
        <ele>218.4</ele>
        <time>2017-09-09T08:32:15Z</time>
      </trkpt>
      <trkpt lat="59.20706693571" lon="17.754449887842">
        <ele>217</ele>
        <time>2017-09-09T08:32:22Z</time>
      </trkpt>
      <trkpt lat="59.207510924953" lon="17.754196754462">
        <ele>215.4</ele>
        <time>2017-09-09T08:32:26Z</time>
      </trkpt>
      <trkpt lat="59.207734218769" lon="17.754079659319">
        <ele>214.2</ele>
        <time>2017-09-09T08:32:28Z</time>
      </trkpt>
      <trkpt lat="59.207958937508" lon="17.753961223072">
        <ele>212.2</ele>
        <time>2017-09-09T08:32:30Z</time>
      </trkpt>
      <trkpt lat="59.208182734238" lon="17.753850330535">
        <ele>209.6</ele>
        <time>2017-09-09T08:32:32Z</time>
      </trkpt>
      <trkpt lat="59.208292034214" lon="17.753800793506">
        <ele>207.2</ele>
        <time>2017-09-09T08:32:33Z</time>
      </trkpt>
      <trkpt lat="59.20840133419" lon="17.753752262305">
        <ele>206.2</ele>
        <time>2017-09-09T08:32:34Z</time>
      </trkpt>
      <trkpt lat="59.208507868139" lon="17.753708508787">
        <ele>204.4</ele>
        <time>2017-09-09T08:32:35Z</time>
      </trkpt>
      <trkpt lat="59.208715487802" lon="17.753656708645">
        <ele>201.6</ele>
        <time>2017-09-09T08:32:37Z</time>
      </trkpt>
      <trkpt lat="59.208814980955" lon="17.753643549062">
        <ele>200.2</ele>
        <time>2017-09-09T08:32:38Z</time>
      </trkpt>
      <trkpt lat="59.208924700026" lon="17.753630557117">
        <ele>199</ele>
        <time>2017-09-09T08:32:39Z</time>
      </trkpt>
      <trkpt lat="59.209020337505" lon="17.753618738638">
        <ele>198</ele>
        <time>2017-09-09T08:32:40Z</time>
      </trkpt>
      <trkpt lat="59.209446976215" lon="17.753443556928">
        <ele>197.8</ele>
        <time>2017-09-09T08:32:45Z</time>
      </trkpt>
      <trkpt lat="59.209815109263" lon="17.752986994835">
        <ele>198.8</ele>
        <time>2017-09-09T08:32:51Z</time>
      </trkpt>
      <trkpt lat="59.210101434967" lon="17.753095121345">
        <ele>199.8</ele>
        <time>2017-09-09T08:32:56Z</time>
      </trkpt>
      <trkpt lat="59.210555147214" lon="17.753705658941">
        <ele>200.4</ele>
        <time>2017-09-09T08:33:04Z</time>
      </trkpt>
      <trkpt lat="59.211043895803" lon="17.754338743848">
        <ele>201.4</ele>
        <time>2017-09-09T08:33:13Z</time>
      </trkpt>
      <trkpt lat="59.211200804971" lon="17.754536975783">
        <ele>202.2</ele>
        <time>2017-09-09T08:33:16Z</time>
      </trkpt>
      <trkpt lat="59.211716878554" lon="17.755061179809">
        <ele>204.4</ele>
        <time>2017-09-09T08:33:24Z</time>
      </trkpt>
      <trkpt lat="59.212276873293" lon="17.75555646628">
        <ele>204.6</ele>
        <time>2017-09-09T08:33:32Z</time>
      </trkpt>
      <trkpt lat="59.212838879688" lon="17.755982099162">
        <ele>204.4</ele>
        <time>2017-09-09T08:33:40Z</time>
      </trkpt>
      <trkpt lat="59.213271385728" lon="17.756351992409">
        <ele>206</ele>
        <time>2017-09-09T08:33:47Z</time>
      </trkpt>
      <trkpt lat="59.213572715033" lon="17.756603952323">
        <ele>207.4</ele>
        <time>2017-09-09T08:33:52Z</time>
      </trkpt>
      <trkpt lat="59.214085771132" lon="17.757062190796">
        <ele>208.6</ele>
        <time>2017-09-09T08:34:00Z</time>
      </trkpt>
      <trkpt lat="59.214576699015" lon="17.757553621593">
        <ele>208.4</ele>
        <time>2017-09-09T08:34:07Z</time>
      </trkpt>
      <trkpt lat="59.214793874044" lon="17.757789823535">
        <ele>207.8</ele>
        <time>2017-09-09T08:34:10Z</time>
      </trkpt>
      <trkpt lat="59.215018089869" lon="17.758036251395">
        <ele>207</ele>
        <time>2017-09-09T08:34:13Z</time>
      </trkpt>
      <trkpt lat="59.215170137535" lon="17.758207745069">
        <ele>206.2</ele>
        <time>2017-09-09T08:34:15Z</time>
      </trkpt>
      <trkpt lat="59.215398376672" lon="17.758466494322">
        <ele>205.4</ele>
        <time>2017-09-09T08:34:18Z</time>
      </trkpt>
      <trkpt lat="59.215699035425" lon="17.758805039263">
        <ele>204.4</ele>
        <time>2017-09-09T08:34:22Z</time>
      </trkpt>
      <trkpt lat="59.216213935542" lon="17.759391017892">
        <ele>204</ele>
        <time>2017-09-09T08:34:29Z</time>
      </trkpt>
      <trkpt lat="59.216695056602" lon="17.759940619075">
        <ele>204</ele>
        <time>2017-09-09T08:34:36Z</time>
      </trkpt>
      <trkpt lat="59.216948273801" lon="17.760234488489">
        <ele>204</ele>
        <time>2017-09-09T08:34:40Z</time>
      </trkpt>
      <trkpt lat="59.217382372402" lon="17.760730864607">
        <ele>203.6</ele>
        <time>2017-09-09T08:34:48Z</time>
      </trkpt>
      <trkpt lat="59.217479015709" lon="17.760863801541">
        <ele>203.2</ele>
        <time>2017-09-09T08:34:52Z</time>
      </trkpt>
      <trkpt lat="59.217490247455" lon="17.760875871477">
        <ele>203.2</ele>
        <time>2017-09-09T08:34:53Z</time>
      </trkpt>
      <trkpt lat="59.217522769227" lon="17.760891797087">
        <ele>203.6</ele>
        <time>2017-09-09T08:38:53Z</time>
      </trkpt>
      <trkpt lat="59.217572557713" lon="17.760955499527">
        <ele>203.6</ele>
        <time>2017-09-09T08:38:55Z</time>
      </trkpt>
      <trkpt lat="59.217533917154" lon="17.761766280714">
        <ele>203.4</ele>
        <time>2017-09-09T08:39:02Z</time>
      </trkpt>
      <trkpt lat="59.217457390407" lon="17.762051181495">
        <ele>203</ele>
        <time>2017-09-09T08:39:04Z</time>
      </trkpt>
      <trkpt lat="59.217391089578" lon="17.762349074221">
        <ele>201.8</ele>
        <time>2017-09-09T08:39:06Z</time>
      </trkpt>
      <trkpt lat="59.217280699955" lon="17.762949637356">
        <ele>200.8</ele>
        <time>2017-09-09T08:39:10Z</time>
      </trkpt>
      <trkpt lat="59.217165616468" lon="17.763675006982">
        <ele>200.2</ele>
        <time>2017-09-09T08:39:15Z</time>
      </trkpt>
      <trkpt lat="59.217100237648" lon="17.764125450288">
        <ele>199.2</ele>
        <time>2017-09-09T08:39:18Z</time>
      </trkpt>
      <trkpt lat="59.216970904931" lon="17.765085094019">
        <ele>198.4</ele>
        <time>2017-09-09T08:39:24Z</time>
      </trkpt>
      <trkpt lat="59.21687543509" lon="17.765928145521">
        <ele>197.6</ele>
        <time>2017-09-09T08:39:29Z</time>
      </trkpt>
      <trkpt lat="59.216810475365" lon="17.766444135285">
        <ele>196.4</ele>
        <time>2017-09-09T08:39:32Z</time>
      </trkpt>
      <trkpt lat="59.216785162027" lon="17.766613365846">
        <ele>195.6</ele>
        <time>2017-09-09T08:39:33Z</time>
      </trkpt>
      <trkpt lat="59.216699499009" lon="17.767111921258">
        <ele>194.8</ele>
        <time>2017-09-09T08:39:36Z</time>
      </trkpt>
      <trkpt lat="59.216631605619" lon="17.767438144806">
        <ele>193.8</ele>
        <time>2017-09-09T08:39:38Z</time>
      </trkpt>
      <trkpt lat="59.216483078351" lon="17.768058656863">
        <ele>192.6</ele>
        <time>2017-09-09T08:39:42Z</time>
      </trkpt>
      <trkpt lat="59.21628618752" lon="17.768792073113">
        <ele>192</ele>
        <time>2017-09-09T08:39:47Z</time>
      </trkpt>
      <trkpt lat="59.215968094415" lon="17.769741910021">
        <ele>191.8</ele>
        <time>2017-09-09T08:39:54Z</time>
      </trkpt>
      <trkpt lat="59.215632566958" lon="17.770595857993">
        <ele>192</ele>
        <time>2017-09-09T08:40:01Z</time>
      </trkpt>
      <trkpt lat="59.215584873947" lon="17.770717898457">
        <ele>192</ele>
        <time>2017-09-09T08:40:02Z</time>
      </trkpt>
      <trkpt lat="59.215273318724" lon="17.771666980994">
        <ele>192.2</ele>
        <time>2017-09-09T08:40:09Z</time>
      </trkpt>
      <trkpt lat="59.215090174209" lon="17.772468122996">
        <ele>191.8</ele>
        <time>2017-09-09T08:40:14Z</time>
      </trkpt>
      <trkpt lat="59.215020101525" lon="17.772987633158">
        <ele>190.8</ele>
        <time>2017-09-09T08:40:17Z</time>
      </trkpt>
      <trkpt lat="59.214996380748" lon="17.773509071157">
        <ele>189.6</ele>
        <time>2017-09-09T08:40:20Z</time>
      </trkpt>
      <trkpt lat="59.215021023534" lon="17.774008213302">
        <ele>188.6</ele>
        <time>2017-09-09T08:40:23Z</time>
      </trkpt>
      <trkpt lat="59.215093359331" lon="17.774656050353">
        <ele>188.2</ele>
        <time>2017-09-09T08:40:27Z</time>
      </trkpt>
      <trkpt lat="59.215345905978" lon="17.775710074278">
        <ele>188</ele>
        <time>2017-09-09T08:40:34Z</time>
      </trkpt>
      <trkpt lat="59.215717224148" lon="17.776619845704">
        <ele>188</ele>
        <time>2017-09-09T08:40:41Z</time>
      </trkpt>
      <trkpt lat="59.215827865228" lon="17.776864764822">
        <ele>188</ele>
        <time>2017-09-09T08:40:43Z</time>
      </trkpt>
      <trkpt lat="59.216248301332" lon="17.777670349231">
        <ele>188.2</ele>
        <time>2017-09-09T08:40:50Z</time>
      </trkpt>
      <trkpt lat="59.216725818175" lon="17.778353725538">
        <ele>188</ele>
        <time>2017-09-09T08:40:57Z</time>
      </trkpt>
      <trkpt lat="59.216873842529" lon="17.778529493981">
        <ele>188.2</ele>
        <time>2017-09-09T08:40:59Z</time>
      </trkpt>
      <trkpt lat="59.217346749327" lon="17.778948421343">
        <ele>187.4</ele>
        <time>2017-09-09T08:41:05Z</time>
      </trkpt>
      <trkpt lat="59.217920071287" lon="17.779296102555">
        <ele>186.8</ele>
        <time>2017-09-09T08:41:12Z</time>
      </trkpt>
      <trkpt lat="59.218084859441" lon="17.779391320939">
        <ele>186.8</ele>
        <time>2017-09-09T08:41:14Z</time>
      </trkpt>
      <trkpt lat="59.218647871664" lon="17.779728943871">
        <ele>186.6</ele>
        <time>2017-09-09T08:41:21Z</time>
      </trkpt>
      <trkpt lat="59.219206357661" lon="17.780058771636">
        <ele>186.8</ele>
        <time>2017-09-09T08:41:28Z</time>
      </trkpt>
      <trkpt lat="59.219522942024" lon="17.780248286395">
        <ele>187</ele>
        <time>2017-09-09T08:41:32Z</time>
      </trkpt>
      <trkpt lat="59.220053767751" lon="17.780574174667">
        <ele>187.4</ele>
        <time>2017-09-09T08:41:39Z</time>
      </trkpt>
      <trkpt lat="59.220611750834" lon="17.780903834794">
        <ele>188.2</ele>
        <time>2017-09-09T08:41:47Z</time>
      </trkpt>
      <trkpt lat="59.220813503167" lon="17.781014727331">
        <ele>189.8</ele>
        <time>2017-09-09T08:41:50Z</time>
      </trkpt>
      <trkpt lat="59.221077616836" lon="17.781189909041">
        <ele>191.2</ele>
        <time>2017-09-09T08:41:54Z</time>
      </trkpt>
      <trkpt lat="59.221335360261" lon="17.781383195655">
        <ele>192.4</ele>
        <time>2017-09-09T08:41:58Z</time>
      </trkpt>
      <trkpt lat="59.221846153247" lon="17.781816288428">
        <ele>193.4</ele>
        <time>2017-09-09T08:42:06Z</time>
      </trkpt>
      <trkpt lat="59.222375218775" lon="17.782310317614">
        <ele>194.4</ele>
        <time>2017-09-09T08:42:14Z</time>
      </trkpt>
      <trkpt lat="59.222920796646" lon="17.782840808065">
        <ele>194.8</ele>
        <time>2017-09-09T08:42:22Z</time>
      </trkpt>
      <trkpt lat="59.222988606217" lon="17.782909623464">
        <ele>195</ele>
        <time>2017-09-09T08:42:23Z</time>
      </trkpt>
      <trkpt lat="59.223527897663" lon="17.783460398113">
        <ele>195.6</ele>
        <time>2017-09-09T08:42:31Z</time>
      </trkpt>
      <trkpt lat="59.224007761438" lon="17.783937831137">
        <ele>195.8</ele>
        <time>2017-09-09T08:42:38Z</time>
      </trkpt>
      <trkpt lat="59.224560966838" lon="17.784456503109">
        <ele>196.6</ele>
        <time>2017-09-09T08:42:46Z</time>
      </trkpt>
      <trkpt lat="59.225112244401" lon="17.7849920227">
        <ele>197.4</ele>
        <time>2017-09-09T08:42:54Z</time>
      </trkpt>
      <trkpt lat="59.225653212227" lon="17.785455457951">
        <ele>198</ele>
        <time>2017-09-09T08:43:02Z</time>
      </trkpt>
      <trkpt lat="59.226113797632" lon="17.785649331298">
        <ele>198.8</ele>
        <time>2017-09-09T08:43:09Z</time>
      </trkpt>
      <trkpt lat="59.226354274343" lon="17.785691156979">
        <ele>200.2</ele>
        <time>2017-09-09T08:43:13Z</time>
      </trkpt>
      <trkpt lat="59.226577735797" lon="17.785688474771">
        <ele>201.8</ele>
        <time>2017-09-09T08:43:17Z</time>
      </trkpt>
      <trkpt lat="59.226804969106" lon="17.785645307986">
        <ele>203</ele>
        <time>2017-09-09T08:43:21Z</time>
      </trkpt>
      <trkpt lat="59.227031280406" lon="17.785585209763">
        <ele>204.2</ele>
        <time>2017-09-09T08:43:25Z</time>
      </trkpt>
      <trkpt lat="59.227362449275" lon="17.785461660557">
        <ele>205.8</ele>
        <time>2017-09-09T08:43:31Z</time>
      </trkpt>
      <trkpt lat="59.227589934041" lon="17.785378176833">
        <ele>207.4</ele>
        <time>2017-09-09T08:43:35Z</time>
      </trkpt>
      <trkpt lat="59.227815239513" lon="17.785303661742">
        <ele>208.8</ele>
        <time>2017-09-09T08:43:39Z</time>
      </trkpt>
      <trkpt lat="59.228037359863" lon="17.785236019809">
        <ele>210.2</ele>
        <time>2017-09-09T08:43:43Z</time>
      </trkpt>
      <trkpt lat="59.228257636195" lon="17.785174329025">
        <ele>211.6</ele>
        <time>2017-09-09T08:43:47Z</time>
      </trkpt>
      <trkpt lat="59.228477074337" lon="17.785106267997">
        <ele>212.8</ele>
        <time>2017-09-09T08:43:51Z</time>
      </trkpt>
      <trkpt lat="59.228757281254" lon="17.785019599151">
        <ele>214.4</ele>
        <time>2017-09-09T08:43:56Z</time>
      </trkpt>
      <trkpt lat="59.229298165261" lon="17.784829246202">
        <ele>215.4</ele>
        <time>2017-09-09T08:44:04Z</time>
      </trkpt>
      <trkpt lat="59.229888921573" lon="17.784521127558">
        <ele>215</ele>
        <time>2017-09-09T08:44:12Z</time>
      </trkpt>
      <trkpt lat="59.230256132612" lon="17.78418233116">
        <ele>214.4</ele>
        <time>2017-09-09T08:44:17Z</time>
      </trkpt>
      <trkpt lat="59.230772541471" lon="17.783645973379">
        <ele>214.2</ele>
        <time>2017-09-09T08:44:24Z</time>
      </trkpt>
      <trkpt lat="59.231303870112" lon="17.783067454641">
        <ele>214.2</ele>
        <time>2017-09-09T08:44:31Z</time>
      </trkpt>
      <trkpt lat="59.231815501288" lon="17.782505448246">
        <ele>213.6</ele>
        <time>2017-09-09T08:44:38Z</time>
      </trkpt>
      <trkpt lat="59.2323643481" lon="17.781943358032">
        <ele>213.6</ele>
        <time>2017-09-09T08:44:45Z</time>
      </trkpt>
      <trkpt lat="59.232817976528" lon="17.78160908786">
        <ele>213</ele>
        <time>2017-09-09T08:44:50Z</time>
      </trkpt>
      <trkpt lat="59.233228438171" lon="17.781389146804">
        <ele>212</ele>
        <time>2017-09-09T08:44:54Z</time>
      </trkpt>
      <trkpt lat="59.23344812777" lon="17.781307758555">
        <ele>211</ele>
        <time>2017-09-09T08:44:56Z</time>
      </trkpt>
      <trkpt lat="59.233677037459" lon="17.781250929273">
        <ele>209.8</ele>
        <time>2017-09-09T08:44:58Z</time>
      </trkpt>
      <trkpt lat="59.233914748143" lon="17.781211953438">
        <ele>207.8</ele>
        <time>2017-09-09T08:45:00Z</time>
      </trkpt>
      <trkpt lat="59.234156565958" lon="17.781191166326">
        <ele>206.2</ele>
        <time>2017-09-09T08:45:02Z</time>
      </trkpt>
      <trkpt lat="59.234398383773" lon="17.781196949837">
        <ele>204.4</ele>
        <time>2017-09-09T08:45:04Z</time>
      </trkpt>
      <trkpt lat="59.234517574391" lon="17.781209857963">
        <ele>203.6</ele>
        <time>2017-09-09T08:45:05Z</time>
      </trkpt>
      <trkpt lat="59.234751177944" lon="17.781251264549">
        <ele>201.8</ele>
        <time>2017-09-09T08:45:07Z</time>
      </trkpt>
      <trkpt lat="59.234980925823" lon="17.781314715532">
        <ele>200.2</ele>
        <time>2017-09-09T08:45:09Z</time>
      </trkpt>
      <trkpt lat="59.235211511892" lon="17.781380597266">
        <ele>198.8</ele>
        <time>2017-09-09T08:45:11Z</time>
      </trkpt>
      <trkpt lat="59.235889356145" lon="17.781595760639">
        <ele>198.2</ele>
        <time>2017-09-09T08:45:17Z</time>
      </trkpt>
      <trkpt lat="59.23655026896" lon="17.7818236645">
        <ele>198.2</ele>
        <time>2017-09-09T08:45:23Z</time>
      </trkpt>
      <trkpt lat="59.23715292757" lon="17.782042180633">
        <ele>198</ele>
        <time>2017-09-09T08:45:29Z</time>
      </trkpt>
      <trkpt lat="59.237750976135" lon="17.782269162485">
        <ele>198.6</ele>
        <time>2017-09-09T08:45:36Z</time>
      </trkpt>
      <trkpt lat="59.238150457489" lon="17.782433363906">
        <ele>201</ele>
        <time>2017-09-09T08:45:41Z</time>
      </trkpt>
      <trkpt lat="59.238582628253" lon="17.782603432657">
        <ele>202.4</ele>
        <time>2017-09-09T08:45:46Z</time>
      </trkpt>
      <trkpt lat="59.239175731497" lon="17.782804095343">
        <ele>202.4</ele>
        <time>2017-09-09T08:45:52Z</time>
      </trkpt>
      <trkpt lat="59.239507068004" lon="17.782916580441">
        <ele>201.4</ele>
        <time>2017-09-09T08:45:55Z</time>
      </trkpt>
      <trkpt lat="59.239729020716" lon="17.782999561251">
        <ele>200.4</ele>
        <time>2017-09-09T08:45:57Z</time>
      </trkpt>
      <trkpt lat="59.239954912921" lon="17.783073908704">
        <ele>199</ele>
        <time>2017-09-09T08:45:59Z</time>
      </trkpt>
      <trkpt lat="59.240171752674" lon="17.783147334148">
        <ele>197.2</ele>
        <time>2017-09-09T08:46:01Z</time>
      </trkpt>
      <trkpt lat="59.240381467812" lon="17.783228722397">
        <ele>195.8</ele>
        <time>2017-09-09T08:46:03Z</time>
      </trkpt>
      <trkpt lat="59.240582214317" lon="17.783310194465">
        <ele>194.8</ele>
        <time>2017-09-09T08:46:05Z</time>
      </trkpt>
      <trkpt lat="59.240778183139" lon="17.783406334858">
        <ele>193.6</ele>
        <time>2017-09-09T08:46:07Z</time>
      </trkpt>
      <trkpt lat="59.241304398821" lon="17.783913355989">
        <ele>193.4</ele>
        <time>2017-09-09T08:46:13Z</time>
      </trkpt>
      <trkpt lat="59.241443203085" lon="17.784170345043">
        <ele>193.2</ele>
        <time>2017-09-09T08:46:15Z</time>
      </trkpt>
      <trkpt lat="59.241505732059" lon="17.784309987497">
        <ele>193.2</ele>
        <time>2017-09-09T08:46:16Z</time>
      </trkpt>
      <trkpt lat="59.241731456626" lon="17.78511272206">
        <ele>193.4</ele>
        <time>2017-09-09T08:46:21Z</time>
      </trkpt>
      <trkpt lat="59.241918624453" lon="17.786137912249">
        <ele>193.4</ele>
        <time>2017-09-09T08:46:27Z</time>
      </trkpt>
      <trkpt lat="59.24196246179" lon="17.78684023165">
        <ele>193.4</ele>
        <time>2017-09-09T08:46:31Z</time>
      </trkpt>
      <trkpt lat="59.24186690813" lon="17.787713877087">
        <ele>193.4</ele>
        <time>2017-09-09T08:46:36Z</time>
      </trkpt>
      <trkpt lat="59.241624838858" lon="17.788807044485">
        <ele>193.6</ele>
        <time>2017-09-09T08:46:43Z</time>
      </trkpt>
      <trkpt lat="59.241552419242" lon="17.7890991537">
        <ele>193.6</ele>
        <time>2017-09-09T08:46:45Z</time>
      </trkpt>
      <trkpt lat="59.241305572287" lon="17.790153009987">
        <ele>194.2</ele>
        <time>2017-09-09T08:46:52Z</time>
      </trkpt>
      <trkpt lat="59.241049589061" lon="17.791217427468">
        <ele>194.8</ele>
        <time>2017-09-09T08:46:59Z</time>
      </trkpt>
      <trkpt lat="59.240766783755" lon="17.792293076695">
        <ele>195.4</ele>
        <time>2017-09-09T08:47:06Z</time>
      </trkpt>
      <trkpt lat="59.240588249285" lon="17.793454975673">
        <ele>196</ele>
        <time>2017-09-09T08:47:13Z</time>
      </trkpt>
      <trkpt lat="59.240506777217" lon="17.794459965483">
        <ele>196</ele>
        <time>2017-09-09T08:47:19Z</time>
      </trkpt>
      <trkpt lat="59.240423461131" lon="17.795468643329">
        <ele>195.6</ele>
        <time>2017-09-09T08:47:25Z</time>
      </trkpt>
      <trkpt lat="59.240388760065" lon="17.795826047545">
        <ele>194.8</ele>
        <time>2017-09-09T08:47:27Z</time>
      </trkpt>
      <trkpt lat="59.240294882785" lon="17.796890632664">
        <ele>194.4</ele>
        <time>2017-09-09T08:47:33Z</time>
      </trkpt>
      <trkpt lat="59.240255236398" lon="17.797242085731">
        <ele>194.6</ele>
        <time>2017-09-09T08:47:35Z</time>
      </trkpt>
      <trkpt lat="59.24015029501" lon="17.798331313636">
        <ele>194.2</ele>
        <time>2017-09-09T08:47:41Z</time>
      </trkpt>
      <trkpt lat="59.240091705529" lon="17.798848476866">
        <ele>193.8</ele>
        <time>2017-09-09T08:47:44Z</time>
      </trkpt>
      <trkpt lat="59.239954410007" lon="17.800011046396">
        <ele>194.6</ele>
        <time>2017-09-09T08:47:51Z</time>
      </trkpt>
      <trkpt lat="59.239843768927" lon="17.801087952908">
        <ele>194.8</ele>
        <time>2017-09-09T08:47:58Z</time>
      </trkpt>
      <trkpt lat="59.239821389254" lon="17.801705363662">
        <ele>195.8</ele>
        <time>2017-09-09T08:48:02Z</time>
      </trkpt>
      <trkpt lat="59.239825999299" lon="17.801859506803">
        <ele>195.8</ele>
        <time>2017-09-09T08:48:03Z</time>
      </trkpt>
      <trkpt lat="59.239862544383" lon="17.802310453023">
        <ele>196.8</ele>
        <time>2017-09-09T08:48:06Z</time>
      </trkpt>
      <trkpt lat="59.239906633177" lon="17.802761063967">
        <ele>198.4</ele>
        <time>2017-09-09T08:48:09Z</time>
      </trkpt>
      <trkpt lat="59.23995248217" lon="17.803197258043">
        <ele>199.6</ele>
        <time>2017-09-09T08:48:12Z</time>
      </trkpt>
      <trkpt lat="59.239997157697" lon="17.803625656952">
        <ele>201.2</ele>
        <time>2017-09-09T08:48:15Z</time>
      </trkpt>
      <trkpt lat="59.240058010291" lon="17.804211803219">
        <ele>202.6</ele>
        <time>2017-09-09T08:48:19Z</time>
      </trkpt>
      <trkpt lat="59.240104781293" lon="17.804651936788">
        <ele>204.2</ele>
        <time>2017-09-09T08:48:22Z</time>
      </trkpt>
      <trkpt lat="59.240150043553" lon="17.80509600985">
        <ele>205.2</ele>
        <time>2017-09-09T08:48:25Z</time>
      </trkpt>
      <trkpt lat="59.24021567383" lon="17.805846608995">
        <ele>206.6</ele>
        <time>2017-09-09T08:48:30Z</time>
      </trkpt>
      <trkpt lat="59.240223049902" lon="17.805996142091">
        <ele>207.2</ele>
        <time>2017-09-09T08:48:31Z</time>
      </trkpt>
      <trkpt lat="59.240226151205" lon="17.806312642635">
        <ele>208</ele>
        <time>2017-09-09T08:48:33Z</time>
      </trkpt>
      <trkpt lat="59.240201592238" lon="17.806789740383">
        <ele>209.6</ele>
        <time>2017-09-09T08:48:36Z</time>
      </trkpt>
      <trkpt lat="59.240167980819" lon="17.807100457416">
        <ele>211</ele>
        <time>2017-09-09T08:48:38Z</time>
      </trkpt>
      <trkpt lat="59.239977963146" lon="17.808181051964">
        <ele>212.4</ele>
        <time>2017-09-09T08:48:45Z</time>
      </trkpt>
      <trkpt lat="59.239724662128" lon="17.809255779182">
        <ele>212.4</ele>
        <time>2017-09-09T08:48:52Z</time>
      </trkpt>
      <trkpt lat="59.239554174282" lon="17.81037325409">
        <ele>212.4</ele>
        <time>2017-09-09T08:48:59Z</time>
      </trkpt>
      <trkpt lat="59.239523496528" lon="17.81155677837">
        <ele>213.2</ele>
        <time>2017-09-09T08:49:06Z</time>
      </trkpt>
      <trkpt lat="59.239546127658" lon="17.812767376187">
        <ele>213.2</ele>
        <time>2017-09-09T08:49:13Z</time>
      </trkpt>
      <trkpt lat="59.239577392145" lon="17.813853921884">
        <ele>212.2</ele>
        <time>2017-09-09T08:49:19Z</time>
      </trkpt>
      <trkpt lat="59.239593820669" lon="17.81421803162">
        <ele>212</ele>
        <time>2017-09-09T08:49:21Z</time>
      </trkpt>
      <trkpt lat="59.239638915291" lon="17.815318491271">
        <ele>211.4</ele>
        <time>2017-09-09T08:49:27Z</time>
      </trkpt>
      <trkpt lat="59.239649225028" lon="17.815500127044">
        <ele>211.2</ele>
        <time>2017-09-09T08:49:28Z</time>
      </trkpt>
      <trkpt lat="59.239672359072" lon="17.816243601574">
        <ele>210.4</ele>
        <time>2017-09-09T08:49:32Z</time>
      </trkpt>
      <trkpt lat="59.239604214225" lon="17.817382534146">
        <ele>209.8</ele>
        <time>2017-09-09T08:49:38Z</time>
      </trkpt>
      <trkpt lat="59.239581750733" lon="17.81756827705">
        <ele>209.4</ele>
        <time>2017-09-09T08:49:39Z</time>
      </trkpt>
      <trkpt lat="59.239505643081" lon="17.818099018958">
        <ele>208.6</ele>
        <time>2017-09-09T08:49:42Z</time>
      </trkpt>
      <trkpt lat="59.239463901219" lon="17.818458099554">
        <ele>207.6</ele>
        <time>2017-09-09T08:49:44Z</time>
      </trkpt>
      <trkpt lat="59.239426769402" lon="17.819579513955">
        <ele>207.4</ele>
        <time>2017-09-09T08:49:50Z</time>
      </trkpt>
      <trkpt lat="59.239436827682" lon="17.820140514522">
        <ele>207.2</ele>
        <time>2017-09-09T08:49:53Z</time>
      </trkpt>
      <trkpt lat="59.239456022233" lon="17.821052968156">
        <ele>207</ele>
        <time>2017-09-09T08:49:58Z</time>
      </trkpt>
      <trkpt lat="59.239615613609" lon="17.822205479406">
        <ele>207.2</ele>
        <time>2017-09-09T08:50:05Z</time>
      </trkpt>
      <trkpt lat="59.239863214935" lon="17.823264197195">
        <ele>208.4</ele>
        <time>2017-09-09T08:50:12Z</time>
      </trkpt>
      <trkpt lat="59.23992063095" lon="17.823567035242">
        <ele>209.2</ele>
        <time>2017-09-09T08:50:14Z</time>
      </trkpt>
      <trkpt lat="59.240098075773" lon="17.824632793827">
        <ele>210</ele>
        <time>2017-09-09T08:50:21Z</time>
      </trkpt>
      <trkpt lat="59.240292871129" lon="17.825759488825">
        <ele>210.4</ele>
        <time>2017-09-09T08:50:28Z</time>
      </trkpt>
      <trkpt lat="59.24047299816" lon="17.826756599649">
        <ele>210.4</ele>
        <time>2017-09-09T08:50:34Z</time>
      </trkpt>
      <trkpt lat="59.240586489086" lon="17.827629658353">
        <ele>209.8</ele>
        <time>2017-09-09T08:50:39Z</time>
      </trkpt>
      <trkpt lat="59.240591015312" lon="17.827993181356">
        <ele>209.4</ele>
        <time>2017-09-09T08:50:41Z</time>
      </trkpt>
      <trkpt lat="59.240557403893" lon="17.82835075321">
        <ele>209.2</ele>
        <time>2017-09-09T08:50:43Z</time>
      </trkpt>
      <trkpt lat="59.240483140259" lon="17.828883087679">
        <ele>208.4</ele>
        <time>2017-09-09T08:50:46Z</time>
      </trkpt>
      <trkpt lat="59.240374594654" lon="17.829943398029">
        <ele>207.8</ele>
        <time>2017-09-09T08:50:52Z</time>
      </trkpt>
      <trkpt lat="59.240365877478" lon="17.831019298713">
        <ele>207.8</ele>
        <time>2017-09-09T08:50:58Z</time>
      </trkpt>
      <trkpt lat="59.240353304628" lon="17.832116405604">
        <ele>207.6</ele>
        <time>2017-09-09T08:51:04Z</time>
      </trkpt>
      <trkpt lat="59.240352885533" lon="17.832482778453">
        <ele>207.2</ele>
        <time>2017-09-09T08:51:06Z</time>
      </trkpt>
      <trkpt lat="59.240390436445" lon="17.833516769637">
        <ele>206.6</ele>
        <time>2017-09-09T08:51:12Z</time>
      </trkpt>
      <trkpt lat="59.240346012375" lon="17.833808627395">
        <ele>206.4</ele>
        <time>2017-09-09T08:51:14Z</time>
      </trkpt>
      <trkpt lat="59.240159431281" lon="17.834061928413">
        <ele>206.4</ele>
        <time>2017-09-09T08:51:17Z</time>
      </trkpt>
      <trkpt lat="59.240094806832" lon="17.834134515667">
        <ele>206.4</ele>
        <time>2017-09-09T08:51:18Z</time>
      </trkpt>
      <trkpt lat="59.239977376413" lon="17.835127770817">
        <ele>207</ele>
        <time>2017-09-09T08:51:26Z</time>
      </trkpt>
      <trkpt lat="59.240104613655" lon="17.835336983041">
        <ele>207</ele>
        <time>2017-09-09T08:51:28Z</time>
      </trkpt>
      <trkpt lat="59.240172674683" lon="17.83544435518">
        <ele>207</ele>
        <time>2017-09-09T08:51:29Z</time>
      </trkpt>
      <trkpt lat="59.240553296762" lon="17.83621632817">
        <ele>206.8</ele>
        <time>2017-09-09T08:51:35Z</time>
      </trkpt>
      <trkpt lat="59.24071355869" lon="17.836464013315">
        <ele>206.6</ele>
        <time>2017-09-09T08:51:37Z</time>
      </trkpt>
      <trkpt lat="59.241195937035" lon="17.837085615019">
        <ele>205.8</ele>
        <time>2017-09-09T08:51:42Z</time>
      </trkpt>
      <trkpt lat="59.241303728269" lon="17.837196507556">
        <ele>205</ele>
        <time>2017-09-09T08:51:43Z</time>
      </trkpt>
      <trkpt lat="59.241528949922" lon="17.837402450839">
        <ele>203.8</ele>
        <time>2017-09-09T08:51:45Z</time>
      </trkpt>
      <trkpt lat="59.241643446676" lon="17.83750714077">
        <ele>202.8</ele>
        <time>2017-09-09T08:51:46Z</time>
      </trkpt>
      <trkpt lat="59.241877217867" lon="17.837718448469">
        <ele>200.8</ele>
        <time>2017-09-09T08:51:48Z</time>
      </trkpt>
      <trkpt lat="59.24199766577" lon="17.837815510871">
        <ele>199.6</ele>
        <time>2017-09-09T08:51:49Z</time>
      </trkpt>
      <trkpt lat="59.242120795881" lon="17.837903772278">
        <ele>198.4</ele>
        <time>2017-09-09T08:51:50Z</time>
      </trkpt>
      <trkpt lat="59.242245937648" lon="17.837988178011">
        <ele>197.4</ele>
        <time>2017-09-09T08:51:51Z</time>
      </trkpt>
      <trkpt lat="59.242372420519" lon="17.838069398622">
        <ele>196.4</ele>
        <time>2017-09-09T08:51:52Z</time>
      </trkpt>
      <trkpt lat="59.242627565555" lon="17.838218847899">
        <ele>194.4</ele>
        <time>2017-09-09T08:51:54Z</time>
      </trkpt>
      <trkpt lat="59.242880782754" lon="17.83837131466">
        <ele>193</ele>
        <time>2017-09-09T08:51:56Z</time>
      </trkpt>
      <trkpt lat="59.243126372424" lon="17.838528642923">
        <ele>191.2</ele>
        <time>2017-09-09T08:51:58Z</time>
      </trkpt>
      <trkpt lat="59.243366513859" lon="17.838703070262">
        <ele>189.8</ele>
        <time>2017-09-09T08:52:00Z</time>
      </trkpt>
      <trkpt lat="59.243608331674" lon="17.838864924751">
        <ele>188</ele>
        <time>2017-09-09T08:52:02Z</time>
      </trkpt>
      <trkpt lat="59.24407553878" lon="17.839195423068">
        <ele>186.8</ele>
        <time>2017-09-09T08:52:06Z</time>
      </trkpt>
      <trkpt lat="59.244513995969" lon="17.839615607715">
        <ele>186.2</ele>
        <time>2017-09-09T08:52:10Z</time>
      </trkpt>
      <trkpt lat="59.244612734751" lon="17.839751478314">
        <ele>186</ele>
        <time>2017-09-09T08:52:11Z</time>
      </trkpt>
      <trkpt lat="59.244996961047" lon="17.840633170375">
        <ele>185.4</ele>
        <time>2017-09-09T08:52:16Z</time>
      </trkpt>
      <trkpt lat="59.245049683198" lon="17.84082721136">
        <ele>185.2</ele>
        <time>2017-09-09T08:52:17Z</time>
      </trkpt>
      <trkpt lat="59.245093436716" lon="17.841019911241">
        <ele>185.4</ele>
        <time>2017-09-09T08:52:18Z</time>
      </trkpt>
      <trkpt lat="59.245157558251" lon="17.841731450732">
        <ele>185.2</ele>
        <time>2017-09-09T08:52:22Z</time>
      </trkpt>
      <trkpt lat="59.245163257943" lon="17.842133027561">
        <ele>185.2</ele>
        <time>2017-09-09T08:52:26Z</time>
      </trkpt>
      <trkpt lat="59.245415636952" lon="17.842424214767">
        <ele>187.2</ele>
        <time>2017-09-09T08:52:31Z</time>
      </trkpt>
      <trkpt lat="59.245965154316" lon="17.842660500528">
        <ele>188.2</ele>
        <time>2017-09-09T08:52:37Z</time>
      </trkpt>
      <trkpt lat="59.246441497693" lon="17.843061406805">
        <ele>186.4</ele>
        <time>2017-09-09T08:52:42Z</time>
      </trkpt>
      <trkpt lat="59.24661693086" lon="17.843289143028">
        <ele>185.6</ele>
        <time>2017-09-09T08:52:44Z</time>
      </trkpt>
      <trkpt lat="59.246857659028" lon="17.843682170319">
        <ele>184.4</ele>
        <time>2017-09-09T08:52:47Z</time>
      </trkpt>
      <trkpt lat="59.24726066078" lon="17.844632510141">
        <ele>183.8</ele>
        <time>2017-09-09T08:52:53Z</time>
      </trkpt>
      <trkpt lat="59.247622926498" lon="17.845617886305">
        <ele>183.6</ele>
        <time>2017-09-09T08:52:59Z</time>
      </trkpt>
      <trkpt lat="59.24798150418" lon="17.84657803295">
        <ele>183.4</ele>
        <time>2017-09-09T08:53:05Z</time>
      </trkpt>
      <trkpt lat="59.248319797664" lon="17.84750758566">
        <ele>183.8</ele>
        <time>2017-09-09T08:53:11Z</time>
      </trkpt>
      <trkpt lat="59.248641830262" lon="17.848388271893">
        <ele>184.6</ele>
        <time>2017-09-09T08:53:17Z</time>
      </trkpt>
      <trkpt lat="59.249008789844" lon="17.849368116003">
        <ele>186.2</ele>
        <time>2017-09-09T08:53:24Z</time>
      </trkpt>
      <trkpt lat="59.249060003253" lon="17.849502058765">
        <ele>186.2</ele>
        <time>2017-09-09T08:53:25Z</time>
      </trkpt>
      <trkpt lat="59.249308610407" lon="17.850160205553">
        <ele>187.6</ele>
        <time>2017-09-09T08:53:30Z</time>
      </trkpt>
      <trkpt lat="59.249498544261" lon="17.850672926376">
        <ele>189.2</ele>
        <time>2017-09-09T08:53:34Z</time>
      </trkpt>
      <trkpt lat="59.249635672145" lon="17.85105648212">
        <ele>190.6</ele>
        <time>2017-09-09T08:53:37Z</time>
      </trkpt>
      <trkpt lat="59.249866006757" lon="17.851689483208">
        <ele>192</ele>
        <time>2017-09-09T08:53:42Z</time>
      </trkpt>
      <trkpt lat="59.250176053238" lon="17.852601601566">
        <ele>193.2</ele>
        <time>2017-09-09T08:53:49Z</time>
      </trkpt>
      <trkpt lat="59.250290214716" lon="17.85301784672">
        <ele>193.6</ele>
        <time>2017-09-09T08:53:52Z</time>
      </trkpt>
      <trkpt lat="59.250510491048" lon="17.854023926177">
        <ele>194</ele>
        <time>2017-09-09T08:53:59Z</time>
      </trkpt>
      <trkpt lat="59.250662454895" lon="17.85506219213">
        <ele>195.2</ele>
        <time>2017-09-09T08:54:06Z</time>
      </trkpt>
      <trkpt lat="59.250759014383" lon="17.856114204399">
        <ele>195.8</ele>
        <time>2017-09-09T08:54:13Z</time>
      </trkpt>
      <trkpt lat="59.250836714596" lon="17.857221285751">
        <ele>196</ele>
        <time>2017-09-09T08:54:20Z</time>
      </trkpt>
      <trkpt lat="59.250968478064" lon="17.858344963265">
        <ele>196.6</ele>
        <time>2017-09-09T08:54:27Z</time>
      </trkpt>
      <trkpt lat="59.251209876784" lon="17.859167311474">
        <ele>196.8</ele>
        <time>2017-09-09T08:54:33Z</time>
      </trkpt>
      <trkpt lat="59.251166290904" lon="17.85984993341">
        <ele>196.8</ele>
        <time>2017-09-09T08:54:37Z</time>
      </trkpt>
      <trkpt lat="59.251063109715" lon="17.86039810967">
        <ele>196.8</ele>
        <time>2017-09-09T08:54:40Z</time>
      </trkpt>
      <trkpt lat="59.250890191118" lon="17.861104536202">
        <ele>195.8</ele>
        <time>2017-09-09T08:54:44Z</time>
      </trkpt>
      <trkpt lat="59.250715260865" lon="17.861850441483">
        <ele>194.4</ele>
        <time>2017-09-09T08:54:48Z</time>
      </trkpt>
      <trkpt lat="59.250581150465" lon="17.862439689053">
        <ele>192.8</ele>
        <time>2017-09-09T08:54:51Z</time>
      </trkpt>
      <trkpt lat="59.250495906542" lon="17.862844534823">
        <ele>191.6</ele>
        <time>2017-09-09T08:54:53Z</time>
      </trkpt>
      <trkpt lat="59.250378476123" lon="17.863469321649">
        <ele>189.6</ele>
        <time>2017-09-09T08:54:56Z</time>
      </trkpt>
      <trkpt lat="59.250340841392" lon="17.863677276588">
        <ele>188.6</ele>
        <time>2017-09-09T08:54:57Z</time>
      </trkpt>
      <trkpt lat="59.250271103984" lon="17.864079607788">
        <ele>187.6</ele>
        <time>2017-09-09T08:54:59Z</time>
      </trkpt>
      <trkpt lat="59.250197427083" lon="17.864472048346">
        <ele>187</ele>
        <time>2017-09-09T08:55:01Z</time>
      </trkpt>
      <trkpt lat="59.250076811542" lon="17.864825345431">
        <ele>186.2</ele>
        <time>2017-09-09T08:55:03Z</time>
      </trkpt>
      <trkpt lat="59.250022999744" lon="17.865011758887">
        <ele>185.2</ele>
        <time>2017-09-09T08:55:04Z</time>
      </trkpt>
      <trkpt lat="59.249985281194" lon="17.865207308614">
        <ele>185.2</ele>
        <time>2017-09-09T08:55:05Z</time>
      </trkpt>
      <trkpt lat="59.249901881289" lon="17.866097382575">
        <ele>184</ele>
        <time>2017-09-09T08:55:09Z</time>
      </trkpt>
      <trkpt lat="59.24980792019" lon="17.866757624838">
        <ele>182.6</ele>
        <time>2017-09-09T08:55:12Z</time>
      </trkpt>
      <trkpt lat="59.249743798655" lon="17.867195495294">
        <ele>181.4</ele>
        <time>2017-09-09T08:55:14Z</time>
      </trkpt>
      <trkpt lat="59.249650172832" lon="17.867844002897">
        <ele>180</ele>
        <time>2017-09-09T08:55:17Z</time>
      </trkpt>
      <trkpt lat="59.249619746535" lon="17.868060591193">
        <ele>178.8</ele>
        <time>2017-09-09T08:55:18Z</time>
      </trkpt>
      <trkpt lat="59.24955813957" lon="17.868493432509">
        <ele>177.2</ele>
        <time>2017-09-09T08:55:20Z</time>
      </trkpt>
      <trkpt lat="59.249485468497" lon="17.869140263732">
        <ele>176.2</ele>
        <time>2017-09-09T08:55:23Z</time>
      </trkpt>
      <trkpt lat="59.249485552316" lon="17.870379527647">
        <ele>175.4</ele>
        <time>2017-09-09T08:55:29Z</time>
      </trkpt>
      <trkpt lat="59.249500723555" lon="17.870573820089">
        <ele>175.6</ele>
        <time>2017-09-09T08:55:30Z</time>
      </trkpt>
      <trkpt lat="59.249672887781" lon="17.871657348302">
        <ele>175.8</ele>
        <time>2017-09-09T08:55:36Z</time>
      </trkpt>
      <trkpt lat="59.249957285648" lon="17.872600814966">
        <ele>176</ele>
        <time>2017-09-09T08:55:42Z</time>
      </trkpt>
      <trkpt lat="59.25027479202" lon="17.873523159242">
        <ele>177</ele>
        <time>2017-09-09T08:55:48Z</time>
      </trkpt>
      <trkpt lat="59.250480902941" lon="17.874556396055">
        <ele>177.4</ele>
        <time>2017-09-09T08:55:54Z</time>
      </trkpt>
      <trkpt lat="59.250515604007" lon="17.874888570752">
        <ele>177.2</ele>
        <time>2017-09-09T08:55:56Z</time>
      </trkpt>
      <trkpt lat="59.250520549328" lon="17.875676553171">
        <ele>176.2</ele>
        <time>2017-09-09T08:56:05Z</time>
      </trkpt>
      <trkpt lat="59.250721044376" lon="17.875903115928">
        <ele>177.2</ele>
        <time>2017-09-09T08:56:12Z</time>
      </trkpt>
      <trkpt lat="59.251097978419" lon="17.876053990128">
        <ele>177.2</ele>
        <time>2017-09-09T08:56:18Z</time>
      </trkpt>
      <trkpt lat="59.251636347856" lon="17.876256580651">
        <ele>176.8</ele>
        <time>2017-09-09T08:56:25Z</time>
      </trkpt>
      <trkpt lat="59.25171731701" lon="17.876266052198">
        <ele>176.8</ele>
        <time>2017-09-09T08:56:26Z</time>
      </trkpt>
      <trkpt lat="59.252204975952" lon="17.876126074468">
        <ele>176</ele>
        <time>2017-09-09T08:56:32Z</time>
      </trkpt>
      <trkpt lat="59.252629016273" lon="17.875618718061">
        <ele>175.8</ele>
        <time>2017-09-09T08:56:38Z</time>
      </trkpt>
      <trkpt lat="59.253101671614" lon="17.874866693993">
        <ele>175.4</ele>
        <time>2017-09-09T08:56:45Z</time>
      </trkpt>
      <trkpt lat="59.253173169221" lon="17.87476300989">
        <ele>175.6</ele>
        <time>2017-09-09T08:56:46Z</time>
      </trkpt>
      <trkpt lat="59.253660409068" lon="17.874298401173">
        <ele>175.2</ele>
        <time>2017-09-09T08:56:52Z</time>
      </trkpt>
      <trkpt lat="59.254220906721" lon="17.87421064268">
        <ele>175</ele>
        <time>2017-09-09T08:56:58Z</time>
      </trkpt>
      <trkpt lat="59.254310257775" lon="17.874225646281">
        <ele>174.8</ele>
        <time>2017-09-09T08:56:59Z</time>
      </trkpt>
      <trkpt lat="59.2545763831" lon="17.874332431687">
        <ele>173.8</ele>
        <time>2017-09-09T08:57:02Z</time>
      </trkpt>
      <trkpt lat="59.254820631666" lon="17.874615153174">
        <ele>173</ele>
        <time>2017-09-09T08:57:05Z</time>
      </trkpt>
      <trkpt lat="59.255004111457" lon="17.875350748718">
        <ele>172.6</ele>
        <time>2017-09-09T08:57:10Z</time>
      </trkpt>
      <trkpt lat="59.255076111978" lon="17.876528321849">
        <ele>174.4</ele>
        <time>2017-09-09T08:57:19Z</time>
      </trkpt>
      <trkpt lat="59.255080889661" lon="17.876658911851">
        <ele>175</ele>
        <time>2017-09-09T08:57:20Z</time>
      </trkpt>
      <trkpt lat="59.255082901317" lon="17.877063422345">
        <ele>176.4</ele>
        <time>2017-09-09T08:57:23Z</time>
      </trkpt>
      <trkpt lat="59.255058929083" lon="17.877977887635">
        <ele>177.8</ele>
        <time>2017-09-09T08:57:30Z</time>
      </trkpt>
      <trkpt lat="59.254938229723" lon="17.878816329092">
        <ele>179.2</ele>
        <time>2017-09-09T08:57:37Z</time>
      </trkpt>
      <trkpt lat="59.254868576134" lon="17.879282278913">
        <ele>180.6</ele>
        <time>2017-09-09T08:57:41Z</time>
      </trkpt>
      <trkpt lat="59.254831444317" lon="17.87974521125">
        <ele>182</ele>
        <time>2017-09-09T08:57:45Z</time>
      </trkpt>
      <trkpt lat="59.254831863412" lon="17.879863731316">
        <ele>182</ele>
        <time>2017-09-09T08:57:46Z</time>
      </trkpt>
      <trkpt lat="59.254889195608" lon="17.880322640341">
        <ele>183.6</ele>
        <time>2017-09-09T08:57:50Z</time>
      </trkpt>
      <trkpt lat="59.255024144198" lon="17.880734191631">
        <ele>185</ele>
        <time>2017-09-09T08:57:54Z</time>
      </trkpt>
      <trkpt lat="59.255295633939" lon="17.881112131502">
        <ele>186</ele>
        <time>2017-09-09T08:57:59Z</time>
      </trkpt>
      <trkpt lat="59.255807097477" lon="17.881395523541">
        <ele>185.8</ele>
        <time>2017-09-09T08:58:06Z</time>
      </trkpt>
      <trkpt lat="59.256073977173" lon="17.881410946237">
        <ele>185.2</ele>
        <time>2017-09-09T08:58:09Z</time>
      </trkpt>
      <trkpt lat="59.256354854642" lon="17.881330396178">
        <ele>184.2</ele>
        <time>2017-09-09T08:58:12Z</time>
      </trkpt>
      <trkpt lat="59.256547722161" lon="17.881246660997">
        <ele>183.2</ele>
        <time>2017-09-09T08:58:14Z</time>
      </trkpt>
      <trkpt lat="59.256743690983" lon="17.881157058486">
        <ele>181.8</ele>
        <time>2017-09-09T08:58:16Z</time>
      </trkpt>
      <trkpt lat="59.256941084728" lon="17.881060750455">
        <ele>179.8</ele>
        <time>2017-09-09T08:58:18Z</time>
      </trkpt>
      <trkpt lat="59.257139232844" lon="17.880958239818">
        <ele>178.8</ele>
        <time>2017-09-09T08:58:20Z</time>
      </trkpt>
      <trkpt lat="59.257332854734" lon="17.880840474123">
        <ele>177.6</ele>
        <time>2017-09-09T08:58:22Z</time>
      </trkpt>
      <trkpt lat="59.257427654023" lon="17.880793703121">
        <ele>177.2</ele>
        <time>2017-09-09T08:58:23Z</time>
      </trkpt>
      <trkpt lat="59.257617671696" lon="17.880730000681">
        <ele>176.2</ele>
        <time>2017-09-09T08:58:25Z</time>
      </trkpt>
      <trkpt lat="59.257900812278" lon="17.880604188362">
        <ele>174.6</ele>
        <time>2017-09-09T08:58:28Z</time>
      </trkpt>
      <trkpt lat="59.258358380199" lon="17.880393802672">
        <ele>173.8</ele>
        <time>2017-09-09T08:58:33Z</time>
      </trkpt>
      <trkpt lat="59.258965648854" lon="17.880047630202">
        <ele>173.8</ele>
        <time>2017-09-09T08:58:40Z</time>
      </trkpt>
      <trkpt lat="59.25956277541" lon="17.879692321461">
        <ele>173.6</ele>
        <time>2017-09-09T08:58:47Z</time>
      </trkpt>
      <trkpt lat="59.260164512011" lon="17.879307927527">
        <ele>173.6</ele>
        <time>2017-09-09T08:58:54Z</time>
      </trkpt>
      <trkpt lat="59.260423931816" lon="17.879143223192">
        <ele>173.4</ele>
        <time>2017-09-09T08:58:57Z</time>
      </trkpt>
      <trkpt lat="59.261033715041" lon="17.878849689054">
        <ele>173.4</ele>
        <time>2017-09-09T08:59:04Z</time>
      </trkpt>
      <trkpt lat="59.261635367823" lon="17.878794871428">
        <ele>173.4</ele>
        <time>2017-09-09T08:59:11Z</time>
      </trkpt>
      <trkpt lat="59.262211120534" lon="17.878784729329">
        <ele>173.8</ele>
        <time>2017-09-09T08:59:18Z</time>
      </trkpt>
      <trkpt lat="59.262783855761" lon="17.879163339752">
        <ele>175.8</ele>
        <time>2017-09-09T08:59:27Z</time>
      </trkpt>
      <trkpt lat="59.26289374247" lon="17.879294851763">
        <ele>176.8</ele>
        <time>2017-09-09T08:59:29Z</time>
      </trkpt>
      <trkpt lat="59.262945207336" lon="17.879370205044">
        <ele>177.4</ele>
        <time>2017-09-09T08:59:30Z</time>
      </trkpt>
      <trkpt lat="59.263076719347" lon="17.879619650388">
        <ele>178.6</ele>
        <time>2017-09-09T08:59:33Z</time>
      </trkpt>
      <trkpt lat="59.263219882199" lon="17.879970097627">
        <ele>180</ele>
        <time>2017-09-09T08:59:37Z</time>
      </trkpt>
      <trkpt lat="59.263278555499" lon="17.880150392296">
        <ele>180.6</ele>
        <time>2017-09-09T08:59:39Z</time>
      </trkpt>
      <trkpt lat="59.263330020365" lon="17.880345690566">
        <ele>181.4</ele>
        <time>2017-09-09T08:59:41Z</time>
      </trkpt>
      <trkpt lat="59.263396153556" lon="17.880632770641">
        <ele>182.6</ele>
        <time>2017-09-09T08:59:44Z</time>
      </trkpt>
      <trkpt lat="59.263455916503" lon="17.881004004992">
        <ele>184</ele>
        <time>2017-09-09T08:59:48Z</time>
      </trkpt>
      <trkpt lat="59.263481900393" lon="17.881284714823">
        <ele>185</ele>
        <time>2017-09-09T08:59:51Z</time>
      </trkpt>
      <trkpt lat="59.263494976157" lon="17.881567101034">
        <ele>186.2</ele>
        <time>2017-09-09T08:59:54Z</time>
      </trkpt>
      <trkpt lat="59.263497155451" lon="17.8817526763">
        <ele>187.8</ele>
        <time>2017-09-09T08:59:56Z</time>
      </trkpt>
      <trkpt lat="59.263497071632" lon="17.882030033371">
        <ele>189.4</ele>
        <time>2017-09-09T08:59:59Z</time>
      </trkpt>
      <trkpt lat="59.263498328917" lon="17.882213764619">
        <ele>190.6</ele>
        <time>2017-09-09T09:00:01Z</time>
      </trkpt>
      <trkpt lat="59.263502100772" lon="17.882565636781">
        <ele>192</ele>
        <time>2017-09-09T09:00:05Z</time>
      </trkpt>
      <trkpt lat="59.263510985586" lon="17.882916670753">
        <ele>193.4</ele>
        <time>2017-09-09T09:00:09Z</time>
      </trkpt>
      <trkpt lat="59.263509476844" lon="17.883098725621">
        <ele>194</ele>
        <time>2017-09-09T09:00:11Z</time>
      </trkpt>
      <trkpt lat="59.263507549007" lon="17.883283797973">
        <ele>195</ele>
        <time>2017-09-09T09:00:13Z</time>
      </trkpt>
      <trkpt lat="59.2635031066" lon="17.883477922777">
        <ele>195.4</ele>
        <time>2017-09-09T09:00:15Z</time>
      </trkpt>
      <trkpt lat="59.263504363885" lon="17.883788220715">
        <ele>196.2</ele>
        <time>2017-09-09T09:00:18Z</time>
      </trkpt>
      <trkpt lat="59.263499167107" lon="17.884298762244">
        <ele>197.6</ele>
        <time>2017-09-09T09:00:23Z</time>
      </trkpt>
      <trkpt lat="59.263499670021" lon="17.884605455965">
        <ele>199.2</ele>
        <time>2017-09-09T09:00:26Z</time>
      </trkpt>
      <trkpt lat="59.263499083288" lon="17.885030250657">
        <ele>200.6</ele>
        <time>2017-09-09T09:00:30Z</time>
      </trkpt>
      <trkpt lat="59.263499334745" lon="17.885357647671">
        <ele>202</ele>
        <time>2017-09-09T09:00:33Z</time>
      </trkpt>
      <trkpt lat="59.26349723927" lon="17.88581035409">
        <ele>203.4</ele>
        <time>2017-09-09T09:00:37Z</time>
      </trkpt>
      <trkpt lat="59.26349807746" lon="17.886148899031">
        <ele>204.8</ele>
        <time>2017-09-09T09:00:40Z</time>
      </trkpt>
      <trkpt lat="59.263508051921" lon="17.886720879887">
        <ele>206</ele>
        <time>2017-09-09T09:00:45Z</time>
      </trkpt>
      <trkpt lat="59.263505453532" lon="17.88784128846">
        <ele>206.6</ele>
        <time>2017-09-09T09:00:54Z</time>
      </trkpt>
      <trkpt lat="59.263440661445" lon="17.888349734514">
        <ele>206.8</ele>
        <time>2017-09-09T09:00:58Z</time>
      </trkpt>
      <trkpt lat="59.263091639129" lon="17.889281131242">
        <ele>206.8</ele>
        <time>2017-09-09T09:01:07Z</time>
      </trkpt>
      <trkpt lat="59.262828866564" lon="17.889980097883">
        <ele>208</ele>
        <time>2017-09-09T09:01:14Z</time>
      </trkpt>
      <trkpt lat="59.262768097789" lon="17.890191992315">
        <ele>208.6</ele>
        <time>2017-09-09T09:01:16Z</time>
      </trkpt>
      <trkpt lat="59.262712190516" lon="17.891028422116">
        <ele>210.2</ele>
        <time>2017-09-09T09:01:23Z</time>
      </trkpt>
      <trkpt lat="59.262794165498" lon="17.891496132136">
        <ele>211.4</ele>
        <time>2017-09-09T09:01:27Z</time>
      </trkpt>
      <trkpt lat="59.262823418329" lon="17.891607527587">
        <ele>211.6</ele>
        <time>2017-09-09T09:01:28Z</time>
      </trkpt>
      <trkpt lat="59.26294403387" lon="17.892043218749">
        <ele>212.8</ele>
        <time>2017-09-09T09:01:32Z</time>
      </trkpt>
      <trkpt lat="59.263205465331" lon="17.89293580728">
        <ele>110.6</ele>
        <time>2017-09-09T09:01:40Z</time>
      </trkpt>
      <trkpt lat="59.263551218706" lon="17.89390475492">
        <ele>215.6</ele>
        <time>2017-09-09T09:01:49Z</time>
      </trkpt>
      <trkpt lat="59.263654986628" lon="17.894083373209">
        <ele>215.6</ele>
        <time>2017-09-09T09:01:51Z</time>
      </trkpt>
      <trkpt lat="59.263875598236" lon="17.894404483798">
        <ele>216</ele>
        <time>2017-09-09T09:01:55Z</time>
      </trkpt>
      <trkpt lat="59.264451518585" lon="17.894753589933">
        <ele>216</ele>
        <time>2017-09-09T09:02:03Z</time>
      </trkpt>
      <trkpt lat="59.264770868975" lon="17.894829781404">
        <ele>215.2</ele>
        <time>2017-09-09T09:02:07Z</time>
      </trkpt>
      <trkpt lat="59.265375371603" lon="17.89503128228">
        <ele>214.8</ele>
        <time>2017-09-09T09:02:15Z</time>
      </trkpt>
      <trkpt lat="59.265665301524" lon="17.895878440913">
        <ele>216.2</ele>
        <time>2017-09-09T09:02:23Z</time>
      </trkpt>
      <trkpt lat="59.265618446703" lon="17.896509095069">
        <ele>217.2</ele>
        <time>2017-09-09T09:02:28Z</time>
      </trkpt>
      <trkpt lat="59.265658679823" lon="17.896655023948">
        <ele>218</ele>
        <time>2017-09-09T09:02:30Z</time>
      </trkpt>
      <trkpt lat="59.265662870773" lon="17.896667345341">
        <ele>218.8</ele>
        <time>2017-09-09T09:02:36Z</time>
      </trkpt>
      <trkpt lat="59.265707881576" lon="17.896736328378">
        <ele>219.2</ele>
        <time>2017-09-09T09:02:45Z</time>
      </trkpt>
      <trkpt lat="59.265738475511" lon="17.8966808402">
        <ele>219.4</ele>
        <time>2017-09-09T09:04:16Z</time>
      </trkpt>
      <trkpt lat="59.265730512706" lon="17.896834564246">
        <ele>219.2</ele>
        <time>2017-09-09T09:04:23Z</time>
      </trkpt>
      <trkpt lat="59.26568994431" lon="17.896855267539">
        <ele>219.4</ele>
        <time>2017-09-09T09:04:25Z</time>
      </trkpt>
      <trkpt lat="59.265592127537" lon="17.896646390591">
        <ele>219</ele>
        <time>2017-09-09T09:04:32Z</time>
      </trkpt>
      <trkpt lat="59.265634288494" lon="17.896608839679">
        <ele>219.6</ele>
        <time>2017-09-09T09:05:01Z</time>
      </trkpt>
      <trkpt lat="59.26574191209" lon="17.896579670667">
        <ele>219.4</ele>
        <time>2017-09-09T09:05:05Z</time>
      </trkpt>
      <trkpt lat="59.266108117301" lon="17.896457211108">
        <ele>219.2</ele>
        <time>2017-09-09T09:05:12Z</time>
      </trkpt>
      <trkpt lat="59.266294866033" lon="17.896517476969">
        <ele>218.8</ele>
        <time>2017-09-09T09:05:15Z</time>
      </trkpt>
      <trkpt lat="59.266474154874" lon="17.896625352022">
        <ele>217.6</ele>
        <time>2017-09-09T09:05:18Z</time>
      </trkpt>
      <trkpt lat="59.266698957432" lon="17.896803970311">
        <ele>216.6</ele>
        <time>2017-09-09T09:05:22Z</time>
      </trkpt>
      <trkpt lat="59.267236153403" lon="17.897377459909">
        <ele>216.4</ele>
        <time>2017-09-09T09:05:31Z</time>
      </trkpt>
      <trkpt lat="59.267642591734" lon="17.898040216742">
        <ele>215.8</ele>
        <time>2017-09-09T09:05:38Z</time>
      </trkpt>
      <trkpt lat="59.267994882991" lon="17.898943366467">
        <ele>215.4</ele>
        <time>2017-09-09T09:05:45Z</time>
      </trkpt>
      <trkpt lat="59.26803687631" lon="17.899099772721">
        <ele>215.2</ele>
        <time>2017-09-09T09:05:46Z</time>
      </trkpt>
      <trkpt lat="59.268192360555" lon="17.899733109085">
        <ele>214.2</ele>
        <time>2017-09-09T09:05:50Z</time>
      </trkpt>
      <trkpt lat="59.268287914215" lon="17.900202327847">
        <ele>213</ele>
        <time>2017-09-09T09:05:53Z</time>
      </trkpt>
      <trkpt lat="59.268423449538" lon="17.901281246015">
        <ele>212.6</ele>
        <time>2017-09-09T09:06:00Z</time>
      </trkpt>
      <trkpt lat="59.268434010732" lon="17.901572852316">
        <ele>212.6</ele>
        <time>2017-09-09T09:06:02Z</time>
      </trkpt>
      <trkpt lat="59.268384306065" lon="17.902126728268">
        <ele>212.6</ele>
        <time>2017-09-09T09:06:06Z</time>
      </trkpt>
      <trkpt lat="59.268450690713" lon="17.902848158401">
        <ele>212.8</ele>
        <time>2017-09-09T09:06:11Z</time>
      </trkpt>
      <trkpt lat="59.268482625752" lon="17.90400410623">
        <ele>213.2</ele>
        <time>2017-09-09T09:06:18Z</time>
      </trkpt>
      <trkpt lat="59.268499892466" lon="17.904650685996">
        <ele>212.6</ele>
        <time>2017-09-09T09:06:22Z</time>
      </trkpt>
      <trkpt lat="59.268534844989" lon="17.90510884065">
        <ele>211.6</ele>
        <time>2017-09-09T09:06:25Z</time>
      </trkpt>
      <trkpt lat="59.268656466358" lon="17.906056414445">
        <ele>210.6</ele>
        <time>2017-09-09T09:06:32Z</time>
      </trkpt>
      <trkpt lat="59.268862242003" lon="17.906819083526">
        <ele>210.4</ele>
        <time>2017-09-09T09:06:40Z</time>
      </trkpt>
      <trkpt lat="59.268852267542" lon="17.906538876609">
        <ele>211.2</ele>
        <time>2017-09-09T09:06:46Z</time>
      </trkpt>
      <trkpt lat="59.268636517436" lon="17.905384856617">
        <ele>211.2</ele>
        <time>2017-09-09T09:06:56Z</time>
      </trkpt>
      <trkpt lat="59.268557308481" lon="17.90418180251">
        <ele>210.8</ele>
        <time>2017-09-09T09:07:06Z</time>
      </trkpt>
      <trkpt lat="59.268494611869" lon="17.903321484294">
        <ele>212</ele>
        <time>2017-09-09T09:07:17Z</time>
      </trkpt>
      <trkpt lat="59.268415151457" lon="17.903403543095">
        <ele>212.8</ele>
        <time>2017-09-09T09:07:23Z</time>
      </trkpt>
      <trkpt lat="59.268415654371" lon="17.903511669605">
        <ele>214</ele>
        <time>2017-09-09T09:07:43Z</time>
      </trkpt>
      <trkpt lat="59.268453037645" lon="17.90460089751">
        <ele>213.8</ele>
        <time>2017-09-09T09:07:53Z</time>
      </trkpt>
      <trkpt lat="59.268480614096" lon="17.904996774647">
        <ele>213.2</ele>
        <time>2017-09-09T09:07:56Z</time>
      </trkpt>
      <trkpt lat="59.268518751741" lon="17.905401033684">
        <ele>211.8</ele>
        <time>2017-09-09T09:07:59Z</time>
      </trkpt>
      <trkpt lat="59.268705584292" lon="17.906507109208">
        <ele>211</ele>
        <time>2017-09-09T09:08:07Z</time>
      </trkpt>
      <trkpt lat="59.268736429684" lon="17.906641638703">
        <ele>210.8</ele>
        <time>2017-09-09T09:08:08Z</time>
      </trkpt>
      <trkpt lat="59.269045470337" lon="17.907619638795">
        <ele>210.8</ele>
        <time>2017-09-09T09:08:16Z</time>
      </trkpt>
      <trkpt lat="59.26944922646" lon="17.908422038082">
        <ele>211.4</ele>
        <time>2017-09-09T09:08:24Z</time>
      </trkpt>
      <trkpt lat="59.269967898432" lon="17.909078424671">
        <ele>212.4</ele>
        <time>2017-09-09T09:08:32Z</time>
      </trkpt>
      <trkpt lat="59.270521439108" lon="17.909663816567">
        <ele>212.4</ele>
        <time>2017-09-09T09:08:39Z</time>
      </trkpt>
      <trkpt lat="59.270875322926" lon="17.910034715642">
        <ele>210.6</ele>
        <time>2017-09-09T09:08:43Z</time>
      </trkpt>
      <trkpt lat="59.271151255074" lon="17.910325986667">
        <ele>209.6</ele>
        <time>2017-09-09T09:08:46Z</time>
      </trkpt>
      <trkpt lat="59.271338590539" lon="17.910518686548">
        <ele>208.2</ele>
        <time>2017-09-09T09:08:48Z</time>
      </trkpt>
      <trkpt lat="59.271528524393" lon="17.91069872976">
        <ele>207.2</ele>
        <time>2017-09-09T09:08:50Z</time>
      </trkpt>
      <trkpt lat="59.271720637541" lon="17.910853040539">
        <ele>205.8</ele>
        <time>2017-09-09T09:08:52Z</time>
      </trkpt>
      <trkpt lat="59.271987349599" lon="17.911034341036">
        <ele>204.2</ele>
        <time>2017-09-09T09:08:55Z</time>
      </trkpt>
      <trkpt lat="59.272159430006" lon="17.911130565248">
        <ele>203.2</ele>
        <time>2017-09-09T09:08:57Z</time>
      </trkpt>
      <trkpt lat="59.272433350498" lon="17.911262077259">
        <ele>202.2</ele>
        <time>2017-09-09T09:09:00Z</time>
      </trkpt>
      <trkpt lat="59.273001894775" lon="17.911447652525">
        <ele>201.2</ele>
        <time>2017-09-09T09:09:06Z</time>
      </trkpt>
      <trkpt lat="59.273093341304" lon="17.911476653899">
        <ele>201.2</ele>
        <time>2017-09-09T09:09:07Z</time>
      </trkpt>
      <trkpt lat="59.273454014461" lon="17.911556030492">
        <ele>199.8</ele>
        <time>2017-09-09T09:09:11Z</time>
      </trkpt>
      <trkpt lat="59.274087099368" lon="17.911656529473">
        <ele>199.6</ele>
        <time>2017-09-09T09:09:18Z</time>
      </trkpt>
      <trkpt lat="59.274676263119" lon="17.911644459537">
        <ele>199.8</ele>
        <time>2017-09-09T09:09:25Z</time>
      </trkpt>
      <trkpt lat="59.275263666671" lon="17.911527951127">
        <ele>201.2</ele>
        <time>2017-09-09T09:09:32Z</time>
      </trkpt>
      <trkpt lat="59.27577588458" lon="17.91141202945">
        <ele>201.6</ele>
        <time>2017-09-09T09:09:38Z</time>
      </trkpt>
      <trkpt lat="59.276395809904" lon="17.911275739756">
        <ele>202.6</ele>
        <time>2017-09-09T09:09:46Z</time>
      </trkpt>
      <trkpt lat="59.276520867852" lon="17.911248163305">
        <ele>203.2</ele>
        <time>2017-09-09T09:09:48Z</time>
      </trkpt>
      <trkpt lat="59.276950691684" lon="17.911163506115">
        <ele>204.6</ele>
        <time>2017-09-09T09:09:55Z</time>
      </trkpt>
      <trkpt lat="59.27731396323" lon="17.911079016563">
        <ele>205.6</ele>
        <time>2017-09-09T09:10:00Z</time>
      </trkpt>
      <trkpt lat="59.277899187488" lon="17.910949683846">
        <ele>206.8</ele>
        <time>2017-09-09T09:10:08Z</time>
      </trkpt>
      <trkpt lat="59.277976720063" lon="17.910936524263">
        <ele>207</ele>
        <time>2017-09-09T09:10:09Z</time>
      </trkpt>
      <trkpt lat="59.278547611272" lon="17.910892938383">
        <ele>208.2</ele>
        <time>2017-09-09T09:10:16Z</time>
      </trkpt>
      <trkpt lat="59.278720194593" lon="17.910892184012">
        <ele>208.4</ele>
        <time>2017-09-09T09:10:18Z</time>
      </trkpt>
      <trkpt lat="59.279271220699" lon="17.910919509006">
        <ele>208.2</ele>
        <time>2017-09-09T09:10:24Z</time>
      </trkpt>
      <trkpt lat="59.279855020034" lon="17.911026964964">
        <ele>207.6</ele>
        <time>2017-09-09T09:10:30Z</time>
      </trkpt>
      <trkpt lat="59.279951328065" lon="17.911074322699">
        <ele>207.4</ele>
        <time>2017-09-09T09:10:31Z</time>
      </trkpt>
      <trkpt lat="59.280326082814" lon="17.911365845181">
        <ele>206.4</ele>
        <time>2017-09-09T09:10:35Z</time>
      </trkpt>
      <trkpt lat="59.28059296251" lon="17.911664073183">
        <ele>205.4</ele>
        <time>2017-09-09T09:10:38Z</time>
      </trkpt>
      <trkpt lat="59.280975009512" lon="17.912292464226">
        <ele>204</ele>
        <time>2017-09-09T09:10:43Z</time>
      </trkpt>
      <trkpt lat="59.281209618893" lon="17.91281096856">
        <ele>203.8</ele>
        <time>2017-09-09T09:10:47Z</time>
      </trkpt>
      <trkpt lat="59.281424363171" lon="17.913898017171">
        <ele>204</ele>
        <time>2017-09-09T09:10:54Z</time>
      </trkpt>
      <trkpt lat="59.28148647305" lon="17.914718102267">
        <ele>205.8</ele>
        <time>2017-09-09T09:10:59Z</time>
      </trkpt>
      <trkpt lat="59.281515306786" lon="17.915835325718">
        <ele>206</ele>
        <time>2017-09-09T09:11:06Z</time>
      </trkpt>
      <trkpt lat="59.281523101953" lon="17.916446869142">
        <ele>206.8</ele>
        <time>2017-09-09T09:11:10Z</time>
      </trkpt>
      <trkpt lat="59.281507679257" lon="17.91658366175">
        <ele>207</ele>
        <time>2017-09-09T09:11:11Z</time>
      </trkpt>
      <trkpt lat="59.28142863794" lon="17.917101998446">
        <ele>207.8</ele>
        <time>2017-09-09T09:11:15Z</time>
      </trkpt>
      <trkpt lat="59.281425033723" lon="17.917238874873">
        <ele>208.2</ele>
        <time>2017-09-09T09:11:16Z</time>
      </trkpt>
      <trkpt lat="59.281440707876" lon="17.917798701974">
        <ele>209.6</ele>
        <time>2017-09-09T09:11:20Z</time>
      </trkpt>
      <trkpt lat="59.281488652344" lon="17.918511079655">
        <ele>210.8</ele>
        <time>2017-09-09T09:11:25Z</time>
      </trkpt>
      <trkpt lat="59.281626534599" lon="17.919371649328">
        <ele>212</ele>
        <time>2017-09-09T09:11:31Z</time>
      </trkpt>
      <trkpt lat="59.281894420123" lon="17.920315451268">
        <ele>212.6</ele>
        <time>2017-09-09T09:11:38Z</time>
      </trkpt>
      <trkpt lat="59.282309324173" lon="17.921217511346">
        <ele>213</ele>
        <time>2017-09-09T09:11:46Z</time>
      </trkpt>
      <trkpt lat="59.282715930142" lon="17.92200088372">
        <ele>213</ele>
        <time>2017-09-09T09:11:53Z</time>
      </trkpt>
      <trkpt lat="59.283157320996" lon="17.922811078174">
        <ele>212</ele>
        <time>2017-09-09T09:12:00Z</time>
      </trkpt>
      <trkpt lat="59.283426966719" lon="17.923278704375">
        <ele>211.6</ele>
        <time>2017-09-09T09:12:04Z</time>
      </trkpt>
      <trkpt lat="59.283791747007" lon="17.923868454859">
        <ele>210.6</ele>
        <time>2017-09-09T09:12:09Z</time>
      </trkpt>
      <trkpt lat="59.2842483091" lon="17.924569516975">
        <ele>209.4</ele>
        <time>2017-09-09T09:12:15Z</time>
      </trkpt>
      <trkpt lat="59.284764382683" lon="17.925300083379">
        <ele>209.2</ele>
        <time>2017-09-09T09:12:22Z</time>
      </trkpt>
      <trkpt lat="59.285278025515" lon="17.925967785533">
        <ele>209</ele>
        <time>2017-09-09T09:12:29Z</time>
      </trkpt>
      <trkpt lat="59.28560785328" lon="17.926314796193">
        <ele>208.8</ele>
        <time>2017-09-09T09:12:33Z</time>
      </trkpt>
      <trkpt lat="59.286142869957" lon="17.926782841489">
        <ele>208.4</ele>
        <time>2017-09-09T09:12:39Z</time>
      </trkpt>
      <trkpt lat="59.286696075357" lon="17.92725465864">
        <ele>208</ele>
        <time>2017-09-09T09:12:45Z</time>
      </trkpt>
      <trkpt lat="59.287253304069" lon="17.927723961221">
        <ele>207.4</ele>
        <time>2017-09-09T09:12:51Z</time>
      </trkpt>
      <trkpt lat="59.287348606272" lon="17.927804008366">
        <ele>207.2</ele>
        <time>2017-09-09T09:12:52Z</time>
      </trkpt>
      <trkpt lat="59.28784498239" lon="17.928223438642">
        <ele>206.4</ele>
        <time>2017-09-09T09:12:57Z</time>
      </trkpt>
      <trkpt lat="59.287948331217" lon="17.928311783868">
        <ele>206.2</ele>
        <time>2017-09-09T09:12:58Z</time>
      </trkpt>
      <trkpt lat="59.288256868956" lon="17.928600875599">
        <ele>205.2</ele>
        <time>2017-09-09T09:13:01Z</time>
      </trkpt>
      <trkpt lat="59.288531543819" lon="17.928991891234">
        <ele>203.8</ele>
        <time>2017-09-09T09:13:04Z</time>
      </trkpt>
      <trkpt lat="59.288689542634" lon="17.92930068043">
        <ele>202</ele>
        <time>2017-09-09T09:13:06Z</time>
      </trkpt>
      <trkpt lat="59.28887679428" lon="17.929804264982">
        <ele>201</ele>
        <time>2017-09-09T09:13:09Z</time>
      </trkpt>
      <trkpt lat="59.289082569925" lon="17.930905395185">
        <ele>200.6</ele>
        <time>2017-09-09T09:13:15Z</time>
      </trkpt>
      <trkpt lat="59.289111990394" lon="17.93129054349">
        <ele>200.6</ele>
        <time>2017-09-09T09:13:17Z</time>
      </trkpt>
      <trkpt lat="59.289088604893" lon="17.932053883123">
        <ele>200.4</ele>
        <time>2017-09-09T09:13:21Z</time>
      </trkpt>
      <trkpt lat="59.288903029627" lon="17.933106230668">
        <ele>200.4</ele>
        <time>2017-09-09T09:13:27Z</time>
      </trkpt>
      <trkpt lat="59.288712257583" lon="17.93373219096">
        <ele>200.4</ele>
        <time>2017-09-09T09:13:31Z</time>
      </trkpt>
      <trkpt lat="59.288389889709" lon="17.934769283447">
        <ele>200.6</ele>
        <time>2017-09-09T09:13:38Z</time>
      </trkpt>
      <trkpt lat="59.288096942304" lon="17.935825402847">
        <ele>201.2</ele>
        <time>2017-09-09T09:13:45Z</time>
      </trkpt>
      <trkpt lat="59.287924694259" lon="17.937006412557">
        <ele>201.2</ele>
        <time>2017-09-09T09:13:52Z</time>
      </trkpt>
      <trkpt lat="59.287852609919" lon="17.938227152473">
        <ele>201.4</ele>
        <time>2017-09-09T09:13:59Z</time>
      </trkpt>
      <trkpt lat="59.287885383148" lon="17.939441857421">
        <ele>201.8</ele>
        <time>2017-09-09T09:14:06Z</time>
      </trkpt>
      <trkpt lat="59.28795897623" lon="17.940642480777">
        <ele>202.2</ele>
        <time>2017-09-09T09:14:13Z</time>
      </trkpt>
      <trkpt lat="59.287899800016" lon="17.941516210033">
        <ele>202.4</ele>
        <time>2017-09-09T09:14:18Z</time>
      </trkpt>
      <trkpt lat="59.287808353487" lon="17.942585572835">
        <ele>202.8</ele>
        <time>2017-09-09T09:14:24Z</time>
      </trkpt>
      <trkpt lat="59.287815310464" lon="17.942764442581">
        <ele>202.8</ele>
        <time>2017-09-09T09:14:25Z</time>
      </trkpt>
      <trkpt lat="59.288117561778" lon="17.943653343076">
        <ele>202.6</ele>
        <time>2017-09-09T09:14:31Z</time>
      </trkpt>
      <trkpt lat="59.288196435457" lon="17.943762726871">
        <ele>202.4</ele>
        <time>2017-09-09T09:14:32Z</time>
      </trkpt>
      <trkpt lat="59.288679149078" lon="17.944367900051">
        <ele>202</ele>
        <time>2017-09-09T09:14:38Z</time>
      </trkpt>
      <trkpt lat="59.289116013706" lon="17.945067704882">
        <ele>202</ele>
        <time>2017-09-09T09:14:45Z</time>
      </trkpt>
      <trkpt lat="59.289457157036" lon="17.945824338995">
        <ele>204.8</ele>
        <time>2017-09-09T09:14:52Z</time>
      </trkpt>
      <trkpt lat="59.289518764001" lon="17.946061798222">
        <ele>205.6</ele>
        <time>2017-09-09T09:14:54Z</time>
      </trkpt>
      <trkpt lat="59.289540137846" lon="17.946179563917">
        <ele>206</ele>
        <time>2017-09-09T09:14:55Z</time>
      </trkpt>
      <trkpt lat="59.289601996268" lon="17.946856318523">
        <ele>207</ele>
        <time>2017-09-09T09:15:01Z</time>
      </trkpt>
      <trkpt lat="59.289677098092" lon="17.947927609162">
        <ele>208.2</ele>
        <time>2017-09-09T09:15:09Z</time>
      </trkpt>
      <trkpt lat="59.289850268146" lon="17.949042820957">
        <ele>208.2</ele>
        <time>2017-09-09T09:15:17Z</time>
      </trkpt>
      <trkpt lat="59.290095438721" lon="17.949623854265">
        <ele>207.8</ele>
        <time>2017-09-09T09:15:22Z</time>
      </trkpt>
      <trkpt lat="59.290559544524" lon="17.950219136803">
        <ele>207.6</ele>
        <time>2017-09-09T09:15:29Z</time>
      </trkpt>
      <trkpt lat="59.291046113819" lon="17.950778628628">
        <ele>207.2</ele>
        <time>2017-09-09T09:15:36Z</time>
      </trkpt>
      <trkpt lat="59.291586159636" lon="17.951413138458">
        <ele>207.6</ele>
        <time>2017-09-09T09:15:45Z</time>
      </trkpt>
      <trkpt lat="59.292030148879" lon="17.951942203986">
        <ele>209.2</ele>
        <time>2017-09-09T09:15:53Z</time>
      </trkpt>
      <trkpt lat="59.292528704291" lon="17.952516447955">
        <ele>210.4</ele>
        <time>2017-09-09T09:16:01Z</time>
      </trkpt>
      <trkpt lat="59.292593161102" lon="17.952590376313">
        <ele>210.4</ele>
        <time>2017-09-09T09:16:02Z</time>
      </trkpt>
      <trkpt lat="59.293130357073" lon="17.953199656624">
        <ele>211</ele>
        <time>2017-09-09T09:16:10Z</time>
      </trkpt>
      <trkpt lat="59.29368129936" lon="17.953734002749">
        <ele>211</ele>
        <time>2017-09-09T09:16:18Z</time>
      </trkpt>
      <trkpt lat="59.294228218335" lon="17.954218476569">
        <ele>211</ele>
        <time>2017-09-09T09:16:26Z</time>
      </trkpt>
      <trkpt lat="59.29476340265" lon="17.954761875146">
        <ele>211.4</ele>
        <time>2017-09-09T09:16:34Z</time>
      </trkpt>
      <trkpt lat="59.295239578389" lon="17.955215922669">
        <ele>211.4</ele>
        <time>2017-09-09T09:16:41Z</time>
      </trkpt>
      <trkpt lat="59.295756825438" lon="17.955614565833">
        <ele>211.4</ele>
        <time>2017-09-09T09:16:48Z</time>
      </trkpt>
      <trkpt lat="59.296298799092" lon="17.955900220985">
        <ele>211</ele>
        <time>2017-09-09T09:16:55Z</time>
      </trkpt>
      <trkpt lat="59.29683959928" lon="17.956146481207">
        <ele>211</ele>
        <time>2017-09-09T09:17:02Z</time>
      </trkpt>
      <trkpt lat="59.297413172697" lon="17.956406739202">
        <ele>211.2</ele>
        <time>2017-09-09T09:17:09Z</time>
      </trkpt>
      <trkpt lat="59.297939891293" lon="17.956599355264">
        <ele>211.2</ele>
        <time>2017-09-09T09:17:15Z</time>
      </trkpt>
      <trkpt lat="59.298115492098" lon="17.956646712999">
        <ele>210.6</ele>
        <time>2017-09-09T09:17:17Z</time>
      </trkpt>
      <trkpt lat="59.298472812495" lon="17.956745032686">
        <ele>209.6</ele>
        <time>2017-09-09T09:17:21Z</time>
      </trkpt>
      <trkpt lat="59.299052923794" lon="17.95690562989">
        <ele>209</ele>
        <time>2017-09-09T09:17:27Z</time>
      </trkpt>
      <trkpt lat="59.299248976435" lon="17.956959441688">
        <ele>208</ele>
        <time>2017-09-09T09:17:29Z</time>
      </trkpt>
      <trkpt lat="59.299435306072" lon="17.957036303711">
        <ele>207</ele>
        <time>2017-09-09T09:17:31Z</time>
      </trkpt>
      <trkpt lat="59.300037797044" lon="17.957264542848">
        <ele>206.4</ele>
        <time>2017-09-09T09:17:38Z</time>
      </trkpt>
      <trkpt lat="59.300609191167" lon="17.957280468458">
        <ele>206.2</ele>
        <time>2017-09-09T09:17:45Z</time>
      </trkpt>
      <trkpt lat="59.300679599127" lon="17.957281055191">
        <ele>206</ele>
        <time>2017-09-09T09:17:46Z</time>
      </trkpt>
      <trkpt lat="59.300857630683" lon="17.957283569761">
        <ele>205.6</ele>
        <time>2017-09-09T09:17:49Z</time>
      </trkpt>
      <trkpt lat="59.301035662239" lon="17.957772485988">
        <ele>205.4</ele>
        <time>2017-09-09T09:17:56Z</time>
      </trkpt>
      <trkpt lat="59.301038512085" lon="17.95789217952">
        <ele>205.2</ele>
        <time>2017-09-09T09:17:57Z</time>
      </trkpt>
      <trkpt lat="59.301029291995" lon="17.958162495795">
        <ele>205.4</ele>
        <time>2017-09-09T09:17:59Z</time>
      </trkpt>
      <trkpt lat="59.300958045845" lon="17.95862811034">
        <ele>205.4</ele>
        <time>2017-09-09T09:18:02Z</time>
      </trkpt>
      <trkpt lat="59.300748498345" lon="17.959753128958">
        <ele>203.8</ele>
        <time>2017-09-09T09:18:09Z</time>
      </trkpt>
      <trkpt lat="59.300685382638" lon="17.960058230118">
        <ele>202.4</ele>
        <time>2017-09-09T09:18:11Z</time>
      </trkpt>
      <trkpt lat="59.300496454612" lon="17.961070763638">
        <ele>201.6</ele>
        <time>2017-09-09T09:18:18Z</time>
      </trkpt>
      <trkpt lat="59.30043040524" lon="17.962232075883">
        <ele>202.8</ele>
        <time>2017-09-09T09:18:26Z</time>
      </trkpt>
      <trkpt lat="59.300483462667" lon="17.963418785285">
        <ele>203.6</ele>
        <time>2017-09-09T09:18:34Z</time>
      </trkpt>
      <trkpt lat="59.300544063804" lon="17.964466774242">
        <ele>203.8</ele>
        <time>2017-09-09T09:18:41Z</time>
      </trkpt>
      <trkpt lat="59.30058211763" lon="17.964917469005">
        <ele>204</ele>
        <time>2017-09-09T09:18:44Z</time>
      </trkpt>
      <trkpt lat="59.300688735398" lon="17.965973504586">
        <ele>204.4</ele>
        <time>2017-09-09T09:18:51Z</time>
      </trkpt>
      <trkpt lat="59.300795772261" lon="17.967069773287">
        <ele>204.4</ele>
        <time>2017-09-09T09:18:58Z</time>
      </trkpt>
      <trkpt lat="59.30085536757" lon="17.967542009533">
        <ele>204.2</ele>
        <time>2017-09-09T09:19:01Z</time>
      </trkpt>
      <trkpt lat="59.300993082187" lon="17.968164281789">
        <ele>203.4</ele>
        <time>2017-09-09T09:19:05Z</time>
      </trkpt>
      <trkpt lat="59.301221488962" lon="17.969129709031">
        <ele>202.4</ele>
        <time>2017-09-09T09:19:11Z</time>
      </trkpt>
      <trkpt lat="59.301330369843" lon="17.969617032697">
        <ele>201.2</ele>
        <time>2017-09-09T09:19:14Z</time>
      </trkpt>
      <trkpt lat="59.30155357984" lon="17.970582459939">
        <ele>200.4</ele>
        <time>2017-09-09T09:19:20Z</time>
      </trkpt>
      <trkpt lat="59.3018000077" lon="17.971528357354">
        <ele>199.8</ele>
        <time>2017-09-09T09:19:26Z</time>
      </trkpt>
      <trkpt lat="59.302160261762" lon="17.97229228372">
        <ele>199.4</ele>
        <time>2017-09-09T09:19:32Z</time>
      </trkpt>
      <trkpt lat="59.3025627606" lon="17.973038859553">
        <ele>198.6</ele>
        <time>2017-09-09T09:19:38Z</time>
      </trkpt>
      <trkpt lat="59.302696451905" lon="17.9732997881">
        <ele>198.4</ele>
        <time>2017-09-09T09:19:40Z</time>
      </trkpt>
      <trkpt lat="59.303128203574" lon="17.974124315603">
        <ele>197.4</ele>
        <time>2017-09-09T09:19:46Z</time>
      </trkpt>
      <trkpt lat="59.303385527904" lon="17.974756143225">
        <ele>196.4</ele>
        <time>2017-09-09T09:19:50Z</time>
      </trkpt>
      <trkpt lat="59.303433891467" lon="17.974934929152">
        <ele>196</ele>
        <time>2017-09-09T09:19:51Z</time>
      </trkpt>
      <trkpt lat="59.303555345198" lon="17.97547740572">
        <ele>195.2</ele>
        <time>2017-09-09T09:19:54Z</time>
      </trkpt>
      <trkpt lat="59.303714517479" lon="17.976157513086">
        <ele>193.8</ele>
        <time>2017-09-09T09:19:58Z</time>
      </trkpt>
      <trkpt lat="59.303869079715" lon="17.976844912705">
        <ele>192.8</ele>
        <time>2017-09-09T09:20:02Z</time>
      </trkpt>
      <trkpt lat="59.303903948419" lon="17.977000983683">
        <ele>192.6</ele>
        <time>2017-09-09T09:20:03Z</time>
      </trkpt>
      <trkpt lat="59.303956251475" lon="17.977427706212">
        <ele>192.8</ele>
        <time>2017-09-09T09:20:06Z</time>
      </trkpt>
      <trkpt lat="59.304165798975" lon="17.977872785102">
        <ele>192.8</ele>
        <time>2017-09-09T09:20:10Z</time>
      </trkpt>
      <trkpt lat="59.304419435269" lon="17.97888045712">
        <ele>192.8</ele>
        <time>2017-09-09T09:20:16Z</time>
      </trkpt>
      <trkpt lat="59.304481209872" lon="17.980065825418">
        <ele>191.8</ele>
        <time>2017-09-09T09:20:22Z</time>
      </trkpt>
      <trkpt lat="59.304488669763" lon="17.980265733733">
        <ele>190.4</ele>
        <time>2017-09-09T09:20:23Z</time>
      </trkpt>
      <trkpt lat="59.304506104115" lon="17.980667059105">
        <ele>189</ele>
        <time>2017-09-09T09:20:25Z</time>
      </trkpt>
      <trkpt lat="59.304524292838" lon="17.981066959554">
        <ele>187.8</ele>
        <time>2017-09-09T09:20:27Z</time>
      </trkpt>
      <trkpt lat="59.304543235932" lon="17.981449844746">
        <ele>186.2</ele>
        <time>2017-09-09T09:20:29Z</time>
      </trkpt>
      <trkpt lat="59.304557066067" lon="17.981815882319">
        <ele>185</ele>
        <time>2017-09-09T09:20:31Z</time>
      </trkpt>
      <trkpt lat="59.30458782764" lon="17.982328351685">
        <ele>184</ele>
        <time>2017-09-09T09:20:34Z</time>
      </trkpt>
      <trkpt lat="59.304631748796" lon="17.983426045309">
        <ele>183</ele>
        <time>2017-09-09T09:20:40Z</time>
      </trkpt>
      <trkpt lat="59.304638538135" lon="17.98360533415">
        <ele>183</ele>
        <time>2017-09-09T09:20:41Z</time>
      </trkpt>
      <trkpt lat="59.304686314965" lon="17.984596242368">
        <ele>181.6</ele>
        <time>2017-09-09T09:20:47Z</time>
      </trkpt>
      <trkpt lat="59.304707604991" lon="17.985504588871">
        <ele>181</ele>
        <time>2017-09-09T09:20:54Z</time>
      </trkpt>
      <trkpt lat="59.304711544484" lon="17.985974310547">
        <ele>181.8</ele>
        <time>2017-09-09T09:21:01Z</time>
      </trkpt>
      <trkpt lat="59.304684554766" lon="17.985987553949">
        <ele>184</ele>
        <time>2017-09-09T09:21:08Z</time>
      </trkpt>
      <trkpt lat="59.304677178694" lon="17.986006077948">
        <ele>184.2</ele>
        <time>2017-09-09T09:21:10Z</time>
      </trkpt>
      <trkpt lat="59.304671730459" lon="17.986040024643">
        <ele>184.4</ele>
        <time>2017-09-09T09:21:13Z</time>
      </trkpt>
      <trkpt lat="59.304654296107" lon="17.986047149258">
        <ele>184.4</ele>
        <time>2017-09-09T09:21:17Z</time>
      </trkpt>
      <trkpt lat="59.304649266967" lon="17.986041030471">
        <ele>184.2</ele>
        <time>2017-09-09T09:22:35Z</time>
      </trkpt>
      <trkpt lat="59.304649434605" lon="17.986041198109">
        <ele>184.2</ele>
        <time>2017-09-09T09:22:37Z</time>
      </trkpt>
      <trkpt lat="59.304636358841" lon="17.986050166742">
        <ele>184</ele>
        <time>2017-09-09T09:31:00Z</time>
      </trkpt>
      <trkpt lat="59.304636694117" lon="17.986049831466">
        <ele>184</ele>
        <time>2017-09-09T09:31:02Z</time>
      </trkpt>
      <trkpt lat="59.304636526479" lon="17.986048490362">
        <ele>184</ele>
        <time>2017-09-09T09:31:10Z</time>
      </trkpt>
      <trkpt lat="59.304644405465" lon="17.986046227249">
        <ele>184</ele>
        <time>2017-09-09T09:31:11Z</time>
      </trkpt>
      <trkpt lat="59.304652284451" lon="17.986071456768">
        <ele>184.2</ele>
        <time>2017-09-09T09:31:48Z</time>
      </trkpt>
      <trkpt lat="59.304652619727" lon="17.986065757076">
        <ele>184.2</ele>
        <time>2017-09-09T09:31:51Z</time>
      </trkpt>
      <trkpt lat="59.304694026313" lon="17.98594723701">
        <ele>184.6</ele>
        <time>2017-09-09T09:39:07Z</time>
      </trkpt>
      <trkpt lat="59.30471774709" lon="17.98574774779">
        <ele>184.4</ele>
        <time>2017-09-09T09:39:12Z</time>
      </trkpt>
      <trkpt lat="59.304666282224" lon="17.984617197118">
        <ele>183.6</ele>
        <time>2017-09-09T09:39:23Z</time>
      </trkpt>
      <trkpt lat="59.304636861755" lon="17.984019148553">
        <ele>182.6</ele>
        <time>2017-09-09T09:39:27Z</time>
      </trkpt>
      <trkpt lat="59.304591264219" lon="17.982926819345">
        <ele>182</ele>
        <time>2017-09-09T09:39:34Z</time>
      </trkpt>
      <trkpt lat="59.304548097434" lon="17.981795346664">
        <ele>182.4</ele>
        <time>2017-09-09T09:39:42Z</time>
      </trkpt>
      <trkpt lat="59.304514569834" lon="17.980725816224">
        <ele>183</ele>
        <time>2017-09-09T09:39:50Z</time>
      </trkpt>
      <trkpt lat="59.304495375283" lon="17.980342092842">
        <ele>184</ele>
        <time>2017-09-09T09:39:53Z</time>
      </trkpt>
      <trkpt lat="59.304468637022" lon="17.979521169556">
        <ele>185.2</ele>
        <time>2017-09-09T09:40:00Z</time>
      </trkpt>
      <trkpt lat="59.304470900135" lon="17.979108863895">
        <ele>186.2</ele>
        <time>2017-09-09T09:40:04Z</time>
      </trkpt>
      <trkpt lat="59.304454136335" lon="17.978805271477">
        <ele>187.4</ele>
        <time>2017-09-09T09:40:07Z</time>
      </trkpt>
      <trkpt lat="59.304394541026" lon="17.978401431535">
        <ele>188.4</ele>
        <time>2017-09-09T09:40:11Z</time>
      </trkpt>
      <trkpt lat="59.304317176089" lon="17.978115524926">
        <ele>189.6</ele>
        <time>2017-09-09T09:40:14Z</time>
      </trkpt>
      <trkpt lat="59.304181473128" lon="17.977667260914">
        <ele>191</ele>
        <time>2017-09-09T09:40:19Z</time>
      </trkpt>
      <trkpt lat="59.304070329134" lon="17.977195024668">
        <ele>192.2</ele>
        <time>2017-09-09T09:40:24Z</time>
      </trkpt>
      <trkpt lat="59.303962286443" lon="17.976923451108">
        <ele>193</ele>
        <time>2017-09-09T09:40:27Z</time>
      </trkpt>
      <trkpt lat="59.303897829632" lon="17.976713987427">
        <ele>193.4</ele>
        <time>2017-09-09T09:40:29Z</time>
      </trkpt>
      <trkpt lat="59.303634973248" lon="17.975636075087">
        <ele>193.6</ele>
        <time>2017-09-09T09:40:38Z</time>
      </trkpt>
      <trkpt lat="59.303418217314" lon="17.974663774687">
        <ele>193.8</ele>
        <time>2017-09-09T09:40:46Z</time>
      </trkpt>
      <trkpt lat="59.303076235794" lon="17.973892220792">
        <ele>194.4</ele>
        <time>2017-09-09T09:40:54Z</time>
      </trkpt>
      <trkpt lat="59.302746072753" lon="17.973279420083">
        <ele>195.8</ele>
        <time>2017-09-09T09:41:01Z</time>
      </trkpt>
      <trkpt lat="59.302423201965" lon="17.972663685709">
        <ele>196.8</ele>
        <time>2017-09-09T09:41:08Z</time>
      </trkpt>
      <trkpt lat="59.302089350888" lon="17.972030600802">
        <ele>198</ele>
        <time>2017-09-09T09:41:15Z</time>
      </trkpt>
      <trkpt lat="59.301740328572" lon="17.971232057189">
        <ele>199.2</ele>
        <time>2017-09-09T09:41:23Z</time>
      </trkpt>
      <trkpt lat="59.301646367473" lon="17.970873144231">
        <ele>199.4</ele>
        <time>2017-09-09T09:41:26Z</time>
      </trkpt>
      <trkpt lat="59.301421648734" lon="17.969889276809">
        <ele>199.6</ele>
        <time>2017-09-09T09:41:34Z</time>
      </trkpt>
      <trkpt lat="59.301189051009" lon="17.968888645587">
        <ele>199.8</ele>
        <time>2017-09-09T09:41:42Z</time>
      </trkpt>
      <trkpt lat="59.300963829356" lon="17.967861359923">
        <ele>200</ele>
        <time>2017-09-09T09:41:50Z</time>
      </trkpt>
      <trkpt lat="59.300865761126" lon="17.967364732348">
        <ele>200.2</ele>
        <time>2017-09-09T09:41:54Z</time>
      </trkpt>
      <trkpt lat="59.300850757525" lon="17.967235064355">
        <ele>200.6</ele>
        <time>2017-09-09T09:41:55Z</time>
      </trkpt>
      <trkpt lat="59.300770123647" lon="17.966439119131">
        <ele>201.8</ele>
        <time>2017-09-09T09:42:01Z</time>
      </trkpt>
      <trkpt lat="59.300664763164" lon="17.965367744673">
        <ele>203</ele>
        <time>2017-09-09T09:42:09Z</time>
      </trkpt>
      <trkpt lat="59.300658812015" lon="17.965236484119">
        <ele>203</ele>
        <time>2017-09-09T09:42:10Z</time>
      </trkpt>
      <trkpt lat="59.300651435943" lon="17.964966922215">
        <ele>203.8</ele>
        <time>2017-09-09T09:42:12Z</time>
      </trkpt>
      <trkpt lat="59.300635510333" lon="17.96468822404">
        <ele>204.2</ele>
        <time>2017-09-09T09:42:14Z</time>
      </trkpt>
      <trkpt lat="59.300534676076" lon="17.963541496301">
        <ele>204.6</ele>
        <time>2017-09-09T09:42:22Z</time>
      </trkpt>
      <trkpt lat="59.300481115735" lon="17.962482024141">
        <ele>204.4</ele>
        <time>2017-09-09T09:42:29Z</time>
      </trkpt>
      <trkpt lat="59.300487569798" lon="17.961344767949">
        <ele>203.8</ele>
        <time>2017-09-09T09:42:36Z</time>
      </trkpt>
      <trkpt lat="59.300635929428" lon="17.960365426753">
        <ele>203.4</ele>
        <time>2017-09-09T09:42:42Z</time>
      </trkpt>
      <trkpt lat="59.30084530929" lon="17.959370914318">
        <ele>202.4</ele>
        <time>2017-09-09T09:42:48Z</time>
      </trkpt>
      <trkpt lat="59.300984281192" lon="17.958703044526">
        <ele>201.4</ele>
        <time>2017-09-09T09:42:52Z</time>
      </trkpt>
      <trkpt lat="59.301088132933" lon="17.957934508115">
        <ele>201</ele>
        <time>2017-09-09T09:42:57Z</time>
      </trkpt>
      <trkpt lat="59.301071536771" lon="17.957319276655">
        <ele>201.2</ele>
        <time>2017-09-09T09:43:02Z</time>
      </trkpt>
      <trkpt lat="59.300978330043" lon="17.957183657513">
        <ele>203</ele>
        <time>2017-09-09T09:43:05Z</time>
      </trkpt>
      <trkpt lat="59.300928960652" lon="17.957165887885">
        <ele>203.6</ele>
        <time>2017-09-09T09:43:06Z</time>
      </trkpt>
      <trkpt lat="59.300873388655" lon="17.957151051922">
        <ele>203.8</ele>
        <time>2017-09-09T09:43:07Z</time>
      </trkpt>
      <trkpt lat="59.300813541889" lon="17.957146358058">
        <ele>204</ele>
        <time>2017-09-09T09:43:08Z</time>
      </trkpt>
      <trkpt lat="59.300216163876" lon="17.957145100773">
        <ele>204.2</ele>
        <time>2017-09-09T09:43:17Z</time>
      </trkpt>
      <trkpt lat="59.2996290956" lon="17.956981821361">
        <ele>204.8</ele>
        <time>2017-09-09T09:43:26Z</time>
      </trkpt>
      <trkpt lat="59.299362299723" lon="17.956850896083">
        <ele>205.6</ele>
        <time>2017-09-09T09:43:30Z</time>
      </trkpt>
      <trkpt lat="59.298782775157" lon="17.956648808474">
        <ele>205.8</ele>
        <time>2017-09-09T09:43:38Z</time>
      </trkpt>
      <trkpt lat="59.298168046611" lon="17.95649575498">
        <ele>206</ele>
        <time>2017-09-09T09:43:47Z</time>
      </trkpt>
      <trkpt lat="59.297902005105" lon="17.956426939581">
        <ele>206.8</ele>
        <time>2017-09-09T09:43:51Z</time>
      </trkpt>
      <trkpt lat="59.297476288404" lon="17.95629123662">
        <ele>207.8</ele>
        <time>2017-09-09T09:43:57Z</time>
      </trkpt>
      <trkpt lat="59.29693096199" lon="17.956048412977">
        <ele>208.6</ele>
        <time>2017-09-09T09:44:05Z</time>
      </trkpt>
      <trkpt lat="59.296721749766" lon="17.955948500729">
        <ele>208.8</ele>
        <time>2017-09-09T09:44:08Z</time>
      </trkpt>
      <trkpt lat="59.296191594591" lon="17.955700396489">
        <ele>209.8</ele>
        <time>2017-09-09T09:44:15Z</time>
      </trkpt>
      <trkpt lat="59.295625397246" lon="17.955411220939">
        <ele>209.6</ele>
        <time>2017-09-09T09:44:22Z</time>
      </trkpt>
      <trkpt lat="59.29508275304" lon="17.954979888365">
        <ele>209.2</ele>
        <time>2017-09-09T09:44:29Z</time>
      </trkpt>
      <trkpt lat="59.294571624778" lon="17.954454259416">
        <ele>209.2</ele>
        <time>2017-09-09T09:44:36Z</time>
      </trkpt>
      <trkpt lat="59.294050857331" lon="17.953939946032">
        <ele>209</ele>
        <time>2017-09-09T09:44:43Z</time>
      </trkpt>
      <trkpt lat="59.293523384364" lon="17.953479863541">
        <ele>209.2</ele>
        <time>2017-09-09T09:44:50Z</time>
      </trkpt>
      <trkpt lat="59.293001108175" lon="17.952948283443">
        <ele>208.8</ele>
        <time>2017-09-09T09:44:57Z</time>
      </trkpt>
      <trkpt lat="59.292494254682" lon="17.952348474679">
        <ele>208.4</ele>
        <time>2017-09-09T09:45:04Z</time>
      </trkpt>
      <trkpt lat="59.292197032508" lon="17.952006744616">
        <ele>208.4</ele>
        <time>2017-09-09T09:45:08Z</time>
      </trkpt>
      <trkpt lat="59.292123355607" lon="17.951917142105">
        <ele>208.2</ele>
        <time>2017-09-09T09:45:09Z</time>
      </trkpt>
      <trkpt lat="59.291586327274" lon="17.951297049143">
        <ele>208</ele>
        <time>2017-09-09T09:45:16Z</time>
      </trkpt>
      <trkpt lat="59.291191539784" lon="17.950831853693">
        <ele>207.4</ele>
        <time>2017-09-09T09:45:21Z</time>
      </trkpt>
      <trkpt lat="59.290868585177" lon="17.950459697333">
        <ele>206.4</ele>
        <time>2017-09-09T09:45:25Z</time>
      </trkpt>
      <trkpt lat="59.290705305765" lon="17.950282839243">
        <ele>205.2</ele>
        <time>2017-09-09T09:45:27Z</time>
      </trkpt>
      <trkpt lat="59.290246732016" lon="17.949689065447">
        <ele>204.2</ele>
        <time>2017-09-09T09:45:33Z</time>
      </trkpt>
      <trkpt lat="59.290174647676" lon="17.949586890086">
        <ele>204</ele>
        <time>2017-09-09T09:45:34Z</time>
      </trkpt>
      <trkpt lat="59.289884550117" lon="17.948984902028">
        <ele>203.6</ele>
        <time>2017-09-09T09:45:39Z</time>
      </trkpt>
      <trkpt lat="59.289702830525" lon="17.947958286916">
        <ele>204</ele>
        <time>2017-09-09T09:45:47Z</time>
      </trkpt>
      <trkpt lat="59.2896881622" lon="17.947549082558">
        <ele>205.2</ele>
        <time>2017-09-09T09:45:52Z</time>
      </trkpt>
      <trkpt lat="59.289651198021" lon="17.947060585426">
        <ele>206.6</ele>
        <time>2017-09-09T09:45:57Z</time>
      </trkpt>
      <trkpt lat="59.289552291601" lon="17.945920563207">
        <ele>206.8</ele>
        <time>2017-09-09T09:46:05Z</time>
      </trkpt>
      <trkpt lat="59.28944341072" lon="17.945475484317">
        <ele>206.8</ele>
        <time>2017-09-09T09:46:08Z</time>
      </trkpt>
      <trkpt lat="59.289110565471" lon="17.944644921846">
        <ele>205.4</ele>
        <time>2017-09-09T09:46:14Z</time>
      </trkpt>
      <trkpt lat="59.288783839009" lon="17.943793739901">
        <ele>204.2</ele>
        <time>2017-09-09T09:46:20Z</time>
      </trkpt>
      <trkpt lat="59.288483264075" lon="17.942741392356">
        <ele>203.6</ele>
        <time>2017-09-09T09:46:27Z</time>
      </trkpt>
      <trkpt lat="59.288322163957" lon="17.941909153505">
        <ele>203.2</ele>
        <time>2017-09-09T09:46:32Z</time>
      </trkpt>
      <trkpt lat="59.288160644744" lon="17.940808358578">
        <ele>203</ele>
        <time>2017-09-09T09:46:38Z</time>
      </trkpt>
      <trkpt lat="59.288043968696" lon="17.93963388675">
        <ele>202.2</ele>
        <time>2017-09-09T09:46:44Z</time>
      </trkpt>
      <trkpt lat="59.287982864645" lon="17.938653791183">
        <ele>201</ele>
        <time>2017-09-09T09:46:49Z</time>
      </trkpt>
      <trkpt lat="59.287984541025" lon="17.938076278273">
        <ele>199.8</ele>
        <time>2017-09-09T09:46:52Z</time>
      </trkpt>
      <trkpt lat="59.288063247066" lon="17.93696508979">
        <ele>198.8</ele>
        <time>2017-09-09T09:46:58Z</time>
      </trkpt>
      <trkpt lat="59.288123429108" lon="17.936454045347">
        <ele>198.8</ele>
        <time>2017-09-09T09:47:01Z</time>
      </trkpt>
      <trkpt lat="59.288365163104" lon="17.935330284014">
        <ele>199.4</ele>
        <time>2017-09-09T09:47:08Z</time>
      </trkpt>
      <trkpt lat="59.288638580682" lon="17.93441866857">
        <ele>199.6</ele>
        <time>2017-09-09T09:47:14Z</time>
      </trkpt>
      <trkpt lat="59.288962541117" lon="17.933393143105">
        <ele>199.8</ele>
        <time>2017-09-09T09:47:21Z</time>
      </trkpt>
      <trkpt lat="59.289198743059" lon="17.932343477768">
        <ele>199.8</ele>
        <time>2017-09-09T09:47:28Z</time>
      </trkpt>
      <trkpt lat="59.289266720268" lon="17.931275958984">
        <ele>200</ele>
        <time>2017-09-09T09:47:39Z</time>
      </trkpt>
      <trkpt lat="59.289169909323" lon="17.930187820726">
        <ele>200.6</ele>
        <time>2017-09-09T09:47:48Z</time>
      </trkpt>
      <trkpt lat="59.288889702406" lon="17.929141927244">
        <ele>200.6</ele>
        <time>2017-09-09T09:47:56Z</time>
      </trkpt>
      <trkpt lat="59.288476474736" lon="17.928381856552">
        <ele>200</ele>
        <time>2017-09-09T09:48:03Z</time>
      </trkpt>
      <trkpt lat="59.287939278765" lon="17.927831836274">
        <ele>200.4</ele>
        <time>2017-09-09T09:48:11Z</time>
      </trkpt>
      <trkpt lat="59.287421780259" lon="17.927404610831">
        <ele>200.8</ele>
        <time>2017-09-09T09:48:19Z</time>
      </trkpt>
      <trkpt lat="59.2872406474" lon="17.9272580114">
        <ele>201.4</ele>
        <time>2017-09-09T09:48:22Z</time>
      </trkpt>
      <trkpt lat="59.287066052423" lon="17.927108562123">
        <ele>202.4</ele>
        <time>2017-09-09T09:48:25Z</time>
      </trkpt>
      <trkpt lat="59.286832029775" lon="17.926913599129">
        <ele>203.4</ele>
        <time>2017-09-09T09:48:29Z</time>
      </trkpt>
      <trkpt lat="59.286454676637" lon="17.926597769137">
        <ele>204.6</ele>
        <time>2017-09-09T09:48:35Z</time>
      </trkpt>
      <trkpt lat="59.286115293506" lon="17.926324183921">
        <ele>205.8</ele>
        <time>2017-09-09T09:48:40Z</time>
      </trkpt>
      <trkpt lat="59.285577929897" lon="17.925876171366">
        <ele>205.8</ele>
        <time>2017-09-09T09:48:48Z</time>
      </trkpt>
      <trkpt lat="59.285105023099" lon="17.92531676336">
        <ele>205.6</ele>
        <time>2017-09-09T09:48:57Z</time>
      </trkpt>
      <trkpt lat="59.284657178182" lon="17.924692479448">
        <ele>206.2</ele>
        <time>2017-09-09T09:49:05Z</time>
      </trkpt>
      <trkpt lat="59.284185361031" lon="17.923996781748">
        <ele>206.4</ele>
        <time>2017-09-09T09:49:13Z</time>
      </trkpt>
      <trkpt lat="59.283711280767" lon="17.923252636666">
        <ele>206.4</ele>
        <time>2017-09-09T09:49:21Z</time>
      </trkpt>
      <trkpt lat="59.283246001498" lon="17.922454176872">
        <ele>206.6</ele>
        <time>2017-09-09T09:49:29Z</time>
      </trkpt>
      <trkpt lat="59.283075262195" lon="17.922146896418">
        <ele>207.2</ele>
        <time>2017-09-09T09:49:32Z</time>
      </trkpt>
      <trkpt lat="59.282682989275" lon="17.921409205399">
        <ele>208</ele>
        <time>2017-09-09T09:49:39Z</time>
      </trkpt>
      <trkpt lat="59.282461204201" lon="17.920972843685">
        <ele>208.2</ele>
        <time>2017-09-09T09:49:43Z</time>
      </trkpt>
      <trkpt lat="59.282075133887" lon="17.92017614409">
        <ele>209</ele>
        <time>2017-09-09T09:49:50Z</time>
      </trkpt>
      <trkpt lat="59.281777241161" lon="17.919248100122">
        <ele>208.8</ele>
        <time>2017-09-09T09:49:57Z</time>
      </trkpt>
      <trkpt lat="59.281598455234" lon="17.918192064541">
        <ele>208.4</ele>
        <time>2017-09-09T09:50:04Z</time>
      </trkpt>
      <trkpt lat="59.281557132467" lon="17.917008121166">
        <ele>207.8</ele>
        <time>2017-09-09T09:50:11Z</time>
      </trkpt>
      <trkpt lat="59.281536010079" lon="17.915956947087">
        <ele>207.4</ele>
        <time>2017-09-09T09:50:17Z</time>
      </trkpt>
      <trkpt lat="59.281521760849" lon="17.915410698664">
        <ele>206.2</ele>
        <time>2017-09-09T09:50:20Z</time>
      </trkpt>
      <trkpt lat="59.281487814154" lon="17.914287440245">
        <ele>205.6</ele>
        <time>2017-09-09T09:50:26Z</time>
      </trkpt>
      <trkpt lat="59.281405587715" lon="17.913534075073">
        <ele>205.4</ele>
        <time>2017-09-09T09:50:30Z</time>
      </trkpt>
      <trkpt lat="59.281143318064" lon="17.912457084742">
        <ele>204.4</ele>
        <time>2017-09-09T09:50:36Z</time>
      </trkpt>
      <trkpt lat="59.28082346476" lon="17.911690895263">
        <ele>203.4</ele>
        <time>2017-09-09T09:50:41Z</time>
      </trkpt>
      <trkpt lat="59.280604613351" lon="17.911331647029">
        <ele>202.2</ele>
        <time>2017-09-09T09:50:44Z</time>
      </trkpt>
      <trkpt lat="59.280448877649" lon="17.911141880813">
        <ele>201</ele>
        <time>2017-09-09T09:50:46Z</time>
      </trkpt>
      <trkpt lat="59.279924254528" lon="17.910723456365">
        <ele>200.4</ele>
        <time>2017-09-09T09:50:53Z</time>
      </trkpt>
      <trkpt lat="59.279342634487" lon="17.91058892687">
        <ele>202</ele>
        <time>2017-09-09T09:51:01Z</time>
      </trkpt>
      <trkpt lat="59.279269376681" lon="17.910586747576">
        <ele>202.4</ele>
        <time>2017-09-09T09:51:02Z</time>
      </trkpt>
      <trkpt lat="59.279048681254" lon="17.910586328481">
        <ele>203.6</ele>
        <time>2017-09-09T09:51:05Z</time>
      </trkpt>
      <trkpt lat="59.278461948254" lon="17.910590184155">
        <ele>204.2</ele>
        <time>2017-09-09T09:51:13Z</time>
      </trkpt>
      <trkpt lat="59.278165815727" lon="17.910606947955">
        <ele>204.6</ele>
        <time>2017-09-09T09:51:17Z</time>
      </trkpt>
      <trkpt lat="59.277568437714" lon="17.910693113887">
        <ele>205</ele>
        <time>2017-09-09T09:51:25Z</time>
      </trkpt>
      <trkpt lat="59.277035013598" lon="17.910782297303">
        <ele>205.2</ele>
        <time>2017-09-09T09:51:40Z</time>
      </trkpt>
      <trkpt lat="59.277007437147" lon="17.910807359184">
        <ele>205.8</ele>
        <time>2017-09-09T09:51:56Z</time>
      </trkpt>
      <trkpt lat="59.276447610046" lon="17.910918503178">
        <ele>205</ele>
        <time>2017-09-09T09:52:06Z</time>
      </trkpt>
      <trkpt lat="59.276020384603" lon="17.911019002159">
        <ele>203.6</ele>
        <time>2017-09-09T09:52:11Z</time>
      </trkpt>
      <trkpt lat="59.275738417487" lon="17.911079435658">
        <ele>202.4</ele>
        <time>2017-09-09T09:52:14Z</time>
      </trkpt>
      <trkpt lat="59.275447817014" lon="17.911141210261">
        <ele>200.4</ele>
        <time>2017-09-09T09:52:17Z</time>
      </trkpt>
      <trkpt lat="59.275152774134" lon="17.911198961552">
        <ele>199.2</ele>
        <time>2017-09-09T09:52:20Z</time>
      </trkpt>
      <trkpt lat="59.274757064635" lon="17.911273141367">
        <ele>198.2</ele>
        <time>2017-09-09T09:52:24Z</time>
      </trkpt>
      <trkpt lat="59.274468140542" lon="17.911307674795">
        <ele>197</ele>
        <time>2017-09-09T09:52:27Z</time>
      </trkpt>
      <trkpt lat="59.273886771958" lon="17.911287642054">
        <ele>196</ele>
        <time>2017-09-09T09:52:33Z</time>
      </trkpt>
      <trkpt lat="59.273505479327" lon="17.911225448356">
        <ele>195.8</ele>
        <time>2017-09-09T09:52:37Z</time>
      </trkpt>
      <trkpt lat="59.272920422707" lon="17.911077759278">
        <ele>195.4</ele>
        <time>2017-09-09T09:52:44Z</time>
      </trkpt>
      <trkpt lat="59.272707857723" lon="17.910980193962">
        <ele>197</ele>
        <time>2017-09-09T09:52:53Z</time>
      </trkpt>
      <trkpt lat="59.272588080372" lon="17.910937949186">
        <ele>198.2</ele>
        <time>2017-09-09T09:52:56Z</time>
      </trkpt>
      <trkpt lat="59.27206437926" lon="17.910724210736">
        <ele>198.4</ele>
        <time>2017-09-09T09:53:04Z</time>
      </trkpt>
      <trkpt lat="59.27149021911" lon="17.910351467643">
        <ele>197.6</ele>
        <time>2017-09-09T09:53:13Z</time>
      </trkpt>
      <trkpt lat="59.271432384" lon="17.910306205383">
        <ele>197.6</ele>
        <time>2017-09-09T09:53:14Z</time>
      </trkpt>
      <trkpt lat="59.271041284546" lon="17.90988987641">
        <ele>199.8</ele>
        <time>2017-09-09T09:53:21Z</time>
      </trkpt>
      <trkpt lat="59.270937935719" lon="17.909780492615">
        <ele>200.8</ele>
        <time>2017-09-09T09:53:23Z</time>
      </trkpt>
      <trkpt lat="59.270683293597" lon="17.90950682358">
        <ele>202</ele>
        <time>2017-09-09T09:53:28Z</time>
      </trkpt>
      <trkpt lat="59.270525797696" lon="17.909342370702">
        <ele>203.2</ele>
        <time>2017-09-09T09:53:31Z</time>
      </trkpt>
      <trkpt lat="59.270314657635" lon="17.909114383022">
        <ele>204.4</ele>
        <time>2017-09-09T09:53:35Z</time>
      </trkpt>
      <trkpt lat="59.270093543113" lon="17.90888823936">
        <ele>205.8</ele>
        <time>2017-09-09T09:53:39Z</time>
      </trkpt>
      <trkpt lat="59.269926324208" lon="17.908708531424">
        <ele>207</ele>
        <time>2017-09-09T09:53:42Z</time>
      </trkpt>
      <trkpt lat="59.269651816983" lon="17.908366633723">
        <ele>208</ele>
        <time>2017-09-09T09:53:47Z</time>
      </trkpt>
      <trkpt lat="59.269242109711" lon="17.907658363173">
        <ele>208.6</ele>
        <time>2017-09-09T09:53:55Z</time>
      </trkpt>
      <trkpt lat="59.26887925726" lon="17.906701904564">
        <ele>208.4</ele>
        <time>2017-09-09T09:54:03Z</time>
      </trkpt>
      <trkpt lat="59.268665434991" lon="17.90570647012">
        <ele>207.4</ele>
        <time>2017-09-09T09:54:10Z</time>
      </trkpt>
      <trkpt lat="59.268590668443" lon="17.905101548397">
        <ele>207</ele>
        <time>2017-09-09T09:54:14Z</time>
      </trkpt>
      <trkpt lat="59.268538700663" lon="17.903903104335">
        <ele>207</ele>
        <time>2017-09-09T09:54:22Z</time>
      </trkpt>
      <trkpt lat="59.268509196375" lon="17.902795100974">
        <ele>207.6</ele>
        <time>2017-09-09T09:54:30Z</time>
      </trkpt>
      <trkpt lat="59.268503999597" lon="17.902407689556">
        <ele>208.4</ele>
        <time>2017-09-09T09:54:33Z</time>
      </trkpt>
      <trkpt lat="59.268539203577" lon="17.902023798536">
        <ele>209.2</ele>
        <time>2017-09-09T09:54:36Z</time>
      </trkpt>
      <trkpt lat="59.268526966003" lon="17.901892621801">
        <ele>209.4</ele>
        <time>2017-09-09T09:54:37Z</time>
      </trkpt>
      <trkpt lat="59.26847608787" lon="17.90134536755">
        <ele>210</ele>
        <time>2017-09-09T09:54:41Z</time>
      </trkpt>
      <trkpt lat="59.268383719332" lon="17.900287907046">
        <ele>210.2</ele>
        <time>2017-09-09T09:54:48Z</time>
      </trkpt>
      <trkpt lat="59.268163107724" lon="17.899189459051">
        <ele>210</ele>
        <time>2017-09-09T09:54:55Z</time>
      </trkpt>
      <trkpt lat="59.267828921371" lon="17.8982566374">
        <ele>209.6</ele>
        <time>2017-09-09T09:55:02Z</time>
      </trkpt>
      <trkpt lat="59.267445449446" lon="17.897369245647">
        <ele>210</ele>
        <time>2017-09-09T09:55:10Z</time>
      </trkpt>
      <trkpt lat="59.267274877781" lon="17.89708820054">
        <ele>210.8</ele>
        <time>2017-09-09T09:55:13Z</time>
      </trkpt>
      <trkpt lat="59.26687682135" lon="17.896643456926">
        <ele>211.8</ele>
        <time>2017-09-09T09:55:19Z</time>
      </trkpt>
      <trkpt lat="59.266345827985" lon="17.896299882845">
        <ele>212.2</ele>
        <time>2017-09-09T09:55:26Z</time>
      </trkpt>
      <trkpt lat="59.265963361888" lon="17.896147499903">
        <ele>212.2</ele>
        <time>2017-09-09T09:55:31Z</time>
      </trkpt>
      <trkpt lat="59.265721711711" lon="17.895529670054">
        <ele>212.2</ele>
        <time>2017-09-09T09:55:37Z</time>
      </trkpt>
      <trkpt lat="59.265666558809" lon="17.895264802014">
        <ele>212.6</ele>
        <time>2017-09-09T09:55:39Z</time>
      </trkpt>
      <trkpt lat="59.265449048504" lon="17.894821064228">
        <ele>213</ele>
        <time>2017-09-09T09:55:43Z</time>
      </trkpt>
      <trkpt lat="59.265039676508" lon="17.894594166195">
        <ele>213.2</ele>
        <time>2017-09-09T09:55:48Z</time>
      </trkpt>
      <trkpt lat="59.264594765256" lon="17.894488721893">
        <ele>212</ele>
        <time>2017-09-09T09:55:53Z</time>
      </trkpt>
      <trkpt lat="59.264249850071" lon="17.894393671147">
        <ele>210.8</ele>
        <time>2017-09-09T09:55:57Z</time>
      </trkpt>
      <trkpt lat="59.264083050261" lon="17.894331309811">
        <ele>209.8</ele>
        <time>2017-09-09T09:55:59Z</time>
      </trkpt>
      <trkpt lat="59.263924129437" lon="17.894232822486">
        <ele>209.2</ele>
        <time>2017-09-09T09:56:01Z</time>
      </trkpt>
      <trkpt lat="59.263474105226" lon="17.89358875729">
        <ele>209.2</ele>
        <time>2017-09-09T09:56:08Z</time>
      </trkpt>
      <trkpt lat="59.263379557394" lon="17.893331349141">
        <ele>209.4</ele>
        <time>2017-09-09T09:56:10Z</time>
      </trkpt>
      <trkpt lat="59.263073534225" lon="17.892327784254">
        <ele>209.8</ele>
        <time>2017-09-09T09:56:17Z</time>
      </trkpt>
      <trkpt lat="59.262780670639" lon="17.89130217497">
        <ele>209.6</ele>
        <time>2017-09-09T09:56:24Z</time>
      </trkpt>
      <trkpt lat="59.262751753084" lon="17.891145684897">
        <ele>209.4</ele>
        <time>2017-09-09T09:56:25Z</time>
      </trkpt>
      <trkpt lat="59.262722667891" lon="17.890812420553">
        <ele>209</ele>
        <time>2017-09-09T09:56:27Z</time>
      </trkpt>
      <trkpt lat="59.262908243157" lon="17.889828217855">
        <ele>207.8</ele>
        <time>2017-09-09T09:56:33Z</time>
      </trkpt>
      <trkpt lat="59.263138577769" lon="17.889237796819">
        <ele>206.2</ele>
        <time>2017-09-09T09:56:37Z</time>
      </trkpt>
      <trkpt lat="59.263317279877" lon="17.88876748841">
        <ele>205</ele>
        <time>2017-09-09T09:56:40Z</time>
      </trkpt>
      <trkpt lat="59.263424568197" lon="17.888441013405">
        <ele>204.4</ele>
        <time>2017-09-09T09:56:42Z</time>
      </trkpt>
      <trkpt lat="59.263491958673" lon="17.888073047995">
        <ele>203.8</ele>
        <time>2017-09-09T09:56:44Z</time>
      </trkpt>
      <trkpt lat="59.263524312807" lon="17.887491930868">
        <ele>203</ele>
        <time>2017-09-09T09:56:47Z</time>
      </trkpt>
      <trkpt lat="59.263527246472" lon="17.88729730315">
        <ele>202.4</ele>
        <time>2017-09-09T09:56:48Z</time>
      </trkpt>
      <trkpt lat="59.26352909049" lon="17.886522731771">
        <ele>201.4</ele>
        <time>2017-09-09T09:56:52Z</time>
      </trkpt>
      <trkpt lat="59.263514757441" lon="17.885353289083">
        <ele>201</ele>
        <time>2017-09-09T09:56:58Z</time>
      </trkpt>
      <trkpt lat="59.263512997242" lon="17.884532868711">
        <ele>200.4</ele>
        <time>2017-09-09T09:57:02Z</time>
      </trkpt>
      <trkpt lat="59.263514925079" lon="17.883390415741">
        <ele>198.6</ele>
        <time>2017-09-09T09:57:07Z</time>
      </trkpt>
      <trkpt lat="59.263509895939" lon="17.882911390156">
        <ele>197</ele>
        <time>2017-09-09T09:57:09Z</time>
      </trkpt>
      <trkpt lat="59.263510398853" lon="17.882432532209">
        <ele>195.6</ele>
        <time>2017-09-09T09:57:11Z</time>
      </trkpt>
      <trkpt lat="59.263514757441" lon="17.881945543819">
        <ele>193.4</ele>
        <time>2017-09-09T09:57:13Z</time>
      </trkpt>
      <trkpt lat="59.263513500156" lon="17.881447072226">
        <ele>191.2</ele>
        <time>2017-09-09T09:57:15Z</time>
      </trkpt>
      <trkpt lat="59.263502436048" lon="17.881192597742">
        <ele>190</ele>
        <time>2017-09-09T09:57:16Z</time>
      </trkpt>
      <trkpt lat="59.263480224013" lon="17.880936949792">
        <ele>189.2</ele>
        <time>2017-09-09T09:57:17Z</time>
      </trkpt>
      <trkpt lat="59.26344359511" lon="17.880683397317">
        <ele>188.6</ele>
        <time>2017-09-09T09:57:18Z</time>
      </trkpt>
      <trkpt lat="59.263335217143" lon="17.880190038683">
        <ele>187.6</ele>
        <time>2017-09-09T09:57:20Z</time>
      </trkpt>
      <trkpt lat="59.263188030979" lon="17.879735655884">
        <ele>185.6</ele>
        <time>2017-09-09T09:57:22Z</time>
      </trkpt>
      <trkpt lat="59.263097757916" lon="17.879530466972">
        <ele>184.2</ele>
        <time>2017-09-09T09:57:23Z</time>
      </trkpt>
      <trkpt lat="59.262998935315" lon="17.879342293317">
        <ele>182.8</ele>
        <time>2017-09-09T09:57:24Z</time>
      </trkpt>
      <trkpt lat="59.262779078078" lon="17.879021266547">
        <ele>180.8</ele>
        <time>2017-09-09T09:57:26Z</time>
      </trkpt>
      <trkpt lat="59.262661060926" lon="17.878890928002">
        <ele>179.8</ele>
        <time>2017-09-09T09:57:27Z</time>
      </trkpt>
      <trkpt lat="59.262537427901" lon="17.878782801492">
        <ele>178</ele>
        <time>2017-09-09T09:57:28Z</time>
      </trkpt>
      <trkpt lat="59.262409436288" lon="17.878698228121">
        <ele>176.8</ele>
        <time>2017-09-09T09:57:29Z</time>
      </trkpt>
      <trkpt lat="59.26214775337" lon="17.878610637266">
        <ele>174.8</ele>
        <time>2017-09-09T09:57:31Z</time>
      </trkpt>
      <trkpt lat="59.261880454579" lon="17.878610804904">
        <ele>173.4</ele>
        <time>2017-09-09T09:57:33Z</time>
      </trkpt>
      <trkpt lat="59.261611395589" lon="17.878615834044">
        <ele>171.6</ele>
        <time>2017-09-09T09:57:35Z</time>
      </trkpt>
      <trkpt lat="59.261479464483" lon="17.878623210116">
        <ele>170.4</ele>
        <time>2017-09-09T09:57:36Z</time>
      </trkpt>
      <trkpt lat="59.261219206488" lon="17.878648691092">
        <ele>168.6</ele>
        <time>2017-09-09T09:57:38Z</time>
      </trkpt>
      <trkpt lat="59.260965821651" lon="17.878682637787">
        <ele>167.2</ele>
        <time>2017-09-09T09:57:40Z</time>
      </trkpt>
      <trkpt lat="59.260487131342" lon="17.878898974626">
        <ele>166</ele>
        <time>2017-09-09T09:57:44Z</time>
      </trkpt>
      <trkpt lat="59.259875504099" lon="17.879298036885">
        <ele>166</ele>
        <time>2017-09-09T09:57:50Z</time>
      </trkpt>
      <trkpt lat="59.259352641177" lon="17.879620740035">
        <ele>166.6</ele>
        <time>2017-09-09T09:57:56Z</time>
      </trkpt>
      <trkpt lat="59.259185003177" lon="17.87973599116">
        <ele>167.4</ele>
        <time>2017-09-09T09:57:58Z</time>
      </trkpt>
      <trkpt lat="59.258938994412" lon="17.879917794571">
        <ele>168.6</ele>
        <time>2017-09-09T09:58:01Z</time>
      </trkpt>
      <trkpt lat="59.258337173992" lon="17.880241755006">
        <ele>169.6</ele>
        <time>2017-09-09T09:58:08Z</time>
      </trkpt>
      <trkpt lat="59.257747926422" lon="17.880538558085">
        <ele>169.8</ele>
        <time>2017-09-09T09:58:15Z</time>
      </trkpt>
      <trkpt lat="59.257180890887" lon="17.88080887436">
        <ele>169.8</ele>
        <time>2017-09-09T09:58:22Z</time>
      </trkpt>
      <trkpt lat="59.25661821394" lon="17.881062259197">
        <ele>170.4</ele>
        <time>2017-09-09T09:58:30Z</time>
      </trkpt>
      <trkpt lat="59.256490557603" lon="17.881123866162">
        <ele>170.8</ele>
        <time>2017-09-09T09:58:32Z</time>
      </trkpt>
      <trkpt lat="59.256309424744" lon="17.881205002954">
        <ele>172.4</ele>
        <time>2017-09-09T09:58:35Z</time>
      </trkpt>
      <trkpt lat="59.256139691269" lon="17.881270800869">
        <ele>174</ele>
        <time>2017-09-09T09:58:38Z</time>
      </trkpt>
      <trkpt lat="59.25593257452" lon="17.881292090895">
        <ele>175.2</ele>
        <time>2017-09-09T09:58:42Z</time>
      </trkpt>
      <trkpt lat="59.255786478003" lon="17.881263760073">
        <ele>176.4</ele>
        <time>2017-09-09T09:58:45Z</time>
      </trkpt>
      <trkpt lat="59.25563585526" lon="17.881210199732">
        <ele>177.8</ele>
        <time>2017-09-09T09:58:48Z</time>
      </trkpt>
      <trkpt lat="59.255537032659" lon="17.881165775662">
        <ele>178.4</ele>
        <time>2017-09-09T09:58:50Z</time>
      </trkpt>
      <trkpt lat="59.255434773479" lon="17.881110706579">
        <ele>179</ele>
        <time>2017-09-09T09:58:52Z</time>
      </trkpt>
      <trkpt lat="59.255243079426" lon="17.880960502931">
        <ele>180.2</ele>
        <time>2017-09-09T09:58:56Z</time>
      </trkpt>
      <trkpt lat="59.255063203852" lon="17.880716254365">
        <ele>181.2</ele>
        <time>2017-09-09T09:59:00Z</time>
      </trkpt>
      <trkpt lat="59.255021713447" lon="17.880637715962">
        <ele>181.6</ele>
        <time>2017-09-09T09:59:01Z</time>
      </trkpt>
      <trkpt lat="59.254916269145" lon="17.880350552068">
        <ele>182.2</ele>
        <time>2017-09-09T09:59:04Z</time>
      </trkpt>
      <trkpt lat="59.254860445691" lon="17.879327876449">
        <ele>182.4</ele>
        <time>2017-09-09T09:59:12Z</time>
      </trkpt>
      <trkpt lat="59.255016600488" lon="17.87825239486">
        <ele>181</ele>
        <time>2017-09-09T09:59:19Z</time>
      </trkpt>
      <trkpt lat="59.255106622094" lon="17.877564911422">
        <ele>179.8</ele>
        <time>2017-09-09T09:59:23Z</time>
      </trkpt>
      <trkpt lat="59.255131013423" lon="17.877178086737">
        <ele>178.8</ele>
        <time>2017-09-09T09:59:25Z</time>
      </trkpt>
      <trkpt lat="59.255131181061" lon="17.876584061484">
        <ele>177.6</ele>
        <time>2017-09-09T09:59:28Z</time>
      </trkpt>
      <trkpt lat="59.255096982909" lon="17.87579733635">
        <ele>176.2</ele>
        <time>2017-09-09T09:59:32Z</time>
      </trkpt>
      <trkpt lat="59.255064377318" lon="17.875389473096">
        <ele>174.8</ele>
        <time>2017-09-09T09:59:34Z</time>
      </trkpt>
      <trkpt lat="59.25497368516" lon="17.874774241636">
        <ele>173.8</ele>
        <time>2017-09-09T09:59:37Z</time>
      </trkpt>
      <trkpt lat="59.254922304113" lon="17.87458698999">
        <ele>173.6</ele>
        <time>2017-09-09T09:59:38Z</time>
      </trkpt>
      <trkpt lat="59.254489546616" lon="17.874034371323">
        <ele>172.2</ele>
        <time>2017-09-09T09:59:43Z</time>
      </trkpt>
      <trkpt lat="59.2543919813" lon="17.873999251162">
        <ele>171.4</ele>
        <time>2017-09-09T09:59:44Z</time>
      </trkpt>
      <trkpt lat="59.254289135387" lon="17.873972931996">
        <ele>170.6</ele>
        <time>2017-09-09T09:59:45Z</time>
      </trkpt>
      <trkpt lat="59.254088221244" lon="17.873939404396">
        <ele>169.6</ele>
        <time>2017-09-09T09:59:47Z</time>
      </trkpt>
      <trkpt lat="59.25399384105" lon="17.873938985301">
        <ele>169.2</ele>
        <time>2017-09-09T09:59:48Z</time>
      </trkpt>
      <trkpt lat="59.253412472466" lon="17.874222125883">
        <ele>168.8</ele>
        <time>2017-09-09T09:59:55Z</time>
      </trkpt>
      <trkpt lat="59.252939314211" lon="17.874860156111">
        <ele>170.2</ele>
        <time>2017-09-09T10:00:02Z</time>
      </trkpt>
      <trkpt lat="59.252873935391" lon="17.874967695888">
        <ele>170.8</ele>
        <time>2017-09-09T10:00:03Z</time>
      </trkpt>
      <trkpt lat="59.252384935345" lon="17.875691472953">
        <ele>171.4</ele>
        <time>2017-09-09T10:00:10Z</time>
      </trkpt>
      <trkpt lat="59.2520534312" lon="17.875916024054">
        <ele>171.4</ele>
        <time>2017-09-09T10:00:14Z</time>
      </trkpt>
      <trkpt lat="59.251432500048" lon="17.875885597757">
        <ele>170.6</ele>
        <time>2017-09-09T10:00:21Z</time>
      </trkpt>
      <trkpt lat="59.25085314312" lon="17.875689377478">
        <ele>170.4</ele>
        <time>2017-09-09T10:00:28Z</time>
      </trkpt>
      <trkpt lat="59.250717188702" lon="17.875607234858">
        <ele>170.4</ele>
        <time>2017-09-09T10:00:30Z</time>
      </trkpt>
      <trkpt lat="59.25059246603" lon="17.875018238745">
        <ele>170.8</ele>
        <time>2017-09-09T10:00:35Z</time>
      </trkpt>
      <trkpt lat="59.250571092185" lon="17.874557569521">
        <ele>172</ele>
        <time>2017-09-09T10:00:38Z</time>
      </trkpt>
      <trkpt lat="59.250401861624" lon="17.873504132329">
        <ele>172.6</ele>
        <time>2017-09-09T10:00:45Z</time>
      </trkpt>
      <trkpt lat="59.250115452101" lon="17.872576926551">
        <ele>173</ele>
        <time>2017-09-09T10:00:52Z</time>
      </trkpt>
      <trkpt lat="59.250072033859" lon="17.872448934938">
        <ele>173.2</ele>
        <time>2017-09-09T10:00:53Z</time>
      </trkpt>
      <trkpt lat="59.2497735544" lon="17.871492811605">
        <ele>173.6</ele>
        <time>2017-09-09T10:01:00Z</time>
      </trkpt>
      <trkpt lat="59.249577334121" lon="17.870352286472">
        <ele>173.6</ele>
        <time>2017-09-09T10:01:07Z</time>
      </trkpt>
      <trkpt lat="59.249558558665" lon="17.869262388015">
        <ele>173.4</ele>
        <time>2017-09-09T10:01:13Z</time>
      </trkpt>
      <trkpt lat="59.249678252197" lon="17.868207022986">
        <ele>172.4</ele>
        <time>2017-09-09T10:01:19Z</time>
      </trkpt>
      <trkpt lat="59.249869191879" lon="17.867107569163">
        <ele>172.2</ele>
        <time>2017-09-09T10:01:26Z</time>
      </trkpt>
      <trkpt lat="59.250000200976" lon="17.866270971724">
        <ele>173.6</ele>
        <time>2017-09-09T10:01:32Z</time>
      </trkpt>
      <trkpt lat="59.250067004719" lon="17.865740816549">
        <ele>175</ele>
        <time>2017-09-09T10:01:36Z</time>
      </trkpt>
      <trkpt lat="59.250097850111" lon="17.86562506251">
        <ele>175.4</ele>
        <time>2017-09-09T10:01:37Z</time>
      </trkpt>
      <trkpt lat="59.250192817038" lon="17.865440828348">
        <ele>176.2</ele>
        <time>2017-09-09T10:01:39Z</time>
      </trkpt>
      <trkpt lat="59.250331956578" lon="17.864919390349">
        <ele>177.6</ele>
        <time>2017-09-09T10:01:44Z</time>
      </trkpt>
      <trkpt lat="59.250328687637" lon="17.864787794519">
        <ele>178</ele>
        <time>2017-09-09T10:01:45Z</time>
      </trkpt>
      <trkpt lat="59.250329442008" lon="17.864656366327">
        <ele>178.4</ele>
        <time>2017-09-09T10:01:46Z</time>
      </trkpt>
      <trkpt lat="59.250353498061" lon="17.86440465787">
        <ele>178.8</ele>
        <time>2017-09-09T10:01:48Z</time>
      </trkpt>
      <trkpt lat="59.250395575199" lon="17.864167282462">
        <ele>179.4</ele>
        <time>2017-09-09T10:01:50Z</time>
      </trkpt>
      <trkpt lat="59.250482160226" lon="17.86368884361">
        <ele>180.2</ele>
        <time>2017-09-09T10:01:54Z</time>
      </trkpt>
      <trkpt lat="59.250576121325" lon="17.863213422242">
        <ele>181.4</ele>
        <time>2017-09-09T10:01:58Z</time>
      </trkpt>
      <trkpt lat="59.250626161268" lon="17.862850905067">
        <ele>182.6</ele>
        <time>2017-09-09T10:02:01Z</time>
      </trkpt>
      <trkpt lat="59.250722050204" lon="17.862252269769">
        <ele>183.8</ele>
        <time>2017-09-09T10:02:06Z</time>
      </trkpt>
      <trkpt lat="59.250820034615" lon="17.861792606373">
        <ele>185.2</ele>
        <time>2017-09-09T10:02:10Z</time>
      </trkpt>
      <trkpt lat="59.250900165579" lon="17.861446433903">
        <ele>186.2</ele>
        <time>2017-09-09T10:02:13Z</time>
      </trkpt>
      <trkpt lat="59.251014829971" lon="17.860991464371">
        <ele>187.4</ele>
        <time>2017-09-09T10:02:17Z</time>
      </trkpt>
      <trkpt lat="59.251202249255" lon="17.860184957953">
        <ele>188.4</ele>
        <time>2017-09-09T10:02:24Z</time>
      </trkpt>
      <trkpt lat="59.251276093794" lon="17.85985328617">
        <ele>189.6</ele>
        <time>2017-09-09T10:02:27Z</time>
      </trkpt>
      <trkpt lat="59.251307106824" lon="17.859767371695">
        <ele>190.2</ele>
        <time>2017-09-09T10:02:28Z</time>
      </trkpt>
      <trkpt lat="59.251345244469" lon="17.859701657599">
        <ele>190.8</ele>
        <time>2017-09-09T10:02:29Z</time>
      </trkpt>
      <trkpt lat="59.251516821962" lon="17.859503258026">
        <ele>192</ele>
        <time>2017-09-09T10:02:33Z</time>
      </trkpt>
      <trkpt lat="59.251535345961" lon="17.859116852436">
        <ele>193.4</ele>
        <time>2017-09-09T10:02:37Z</time>
      </trkpt>
      <trkpt lat="59.251397044611" lon="17.858938485604">
        <ele>194</ele>
        <time>2017-09-09T10:02:40Z</time>
      </trkpt>
      <trkpt lat="59.251231669724" lon="17.85875861003">
        <ele>194.4</ele>
        <time>2017-09-09T10:02:43Z</time>
      </trkpt>
      <trkpt lat="59.251182467971" lon="17.858668169329">
        <ele>194.4</ele>
        <time>2017-09-09T10:02:44Z</time>
      </trkpt>
      <trkpt lat="59.251012734496" lon="17.858208673571">
        <ele>194.4</ele>
        <time>2017-09-09T10:02:48Z</time>
      </trkpt>
      <trkpt lat="59.25086571597" lon="17.857188009608">
        <ele>194.2</ele>
        <time>2017-09-09T10:02:55Z</time>
      </trkpt>
      <trkpt lat="59.250781645513" lon="17.856070953795">
        <ele>194</ele>
        <time>2017-09-09T10:03:02Z</time>
      </trkpt>
      <trkpt lat="59.250675279202" lon="17.854900505279">
        <ele>193.6</ele>
        <time>2017-09-09T10:03:09Z</time>
      </trkpt>
      <trkpt lat="59.250654743547" lon="17.854733537831">
        <ele>193.6</ele>
        <time>2017-09-09T10:03:10Z</time>
      </trkpt>
      <trkpt lat="59.250453745585" lon="17.853582535323">
        <ele>192.8</ele>
        <time>2017-09-09T10:03:17Z</time>
      </trkpt>
      <trkpt lat="59.250383337625" lon="17.853270393367">
        <ele>192.4</ele>
        <time>2017-09-09T10:03:19Z</time>
      </trkpt>
      <trkpt lat="59.250095503179" lon="17.85219474414">
        <ele>191.4</ele>
        <time>2017-09-09T10:03:26Z</time>
      </trkpt>
      <trkpt lat="59.249785959612" lon="17.851327720404">
        <ele>190.4</ele>
        <time>2017-09-09T10:03:32Z</time>
      </trkpt>
      <trkpt lat="59.249456970037" lon="17.850435634787">
        <ele>189.8</ele>
        <time>2017-09-09T10:03:38Z</time>
      </trkpt>
      <trkpt lat="59.249343227654" lon="17.850129192523">
        <ele>189.6</ele>
        <time>2017-09-09T10:03:40Z</time>
      </trkpt>
      <trkpt lat="59.249113731232" lon="17.849512452321">
        <ele>188.4</ele>
        <time>2017-09-09T10:03:44Z</time>
      </trkpt>
      <trkpt lat="59.248830674469" lon="17.848725727187">
        <ele>187.4</ele>
        <time>2017-09-09T10:03:49Z</time>
      </trkpt>
      <trkpt lat="59.248658929338" lon="17.848249299991">
        <ele>185.8</ele>
        <time>2017-09-09T10:03:52Z</time>
      </trkpt>
      <trkpt lat="59.248482071248" lon="17.847764407076">
        <ele>184</ele>
        <time>2017-09-09T10:03:55Z</time>
      </trkpt>
      <trkpt lat="59.248236146302" lon="17.847110535057">
        <ele>183</ele>
        <time>2017-09-09T10:03:59Z</time>
      </trkpt>
      <trkpt lat="59.24793121278" lon="17.846263292605">
        <ele>181.8</ele>
        <time>2017-09-09T10:04:04Z</time>
      </trkpt>
      <trkpt lat="59.247559726972" lon="17.845259811537">
        <ele>181</ele>
        <time>2017-09-09T10:04:10Z</time>
      </trkpt>
      <trkpt lat="59.247498874378" lon="17.845095610116">
        <ele>180.8</ele>
        <time>2017-09-09T10:04:11Z</time>
      </trkpt>
      <trkpt lat="59.247144739103" lon="17.844130434331">
        <ele>180</ele>
        <time>2017-09-09T10:04:17Z</time>
      </trkpt>
      <trkpt lat="59.246833602975" lon="17.843435407183">
        <ele>179.8</ele>
        <time>2017-09-09T10:04:22Z</time>
      </trkpt>
      <trkpt lat="59.246337478314" lon="17.842746247365">
        <ele>179.8</ele>
        <time>2017-09-09T10:04:29Z</time>
      </trkpt>
      <trkpt lat="59.245790643158" lon="17.842350705504">
        <ele>180.2</ele>
        <time>2017-09-09T10:04:36Z</time>
      </trkpt>
      <trkpt lat="59.24548872712" lon="17.842198657838">
        <ele>180.8</ele>
        <time>2017-09-09T10:04:40Z</time>
      </trkpt>
      <trkpt lat="59.245074828898" lon="17.842015261866">
        <ele>182</ele>
        <time>2017-09-09T10:04:46Z</time>
      </trkpt>
      <trkpt lat="59.244811888695" lon="17.841874529765">
        <ele>183.4</ele>
        <time>2017-09-09T10:04:50Z</time>
      </trkpt>
      <trkpt lat="59.244640143564" lon="17.841704544833">
        <ele>184.4</ele>
        <time>2017-09-09T10:04:53Z</time>
      </trkpt>
      <trkpt lat="59.24441332935" lon="17.841476976248">
        <ele>185.6</ele>
        <time>2017-09-09T10:04:57Z</time>
      </trkpt>
      <trkpt lat="59.244365468701" lon="17.841408496125">
        <ele>185.8</ele>
        <time>2017-09-09T10:04:58Z</time>
      </trkpt>
      <trkpt lat="59.244214510682" lon="17.841216047701">
        <ele>187</ele>
        <time>2017-09-09T10:05:01Z</time>
      </trkpt>
      <trkpt lat="59.244070258183" lon="17.840997615387">
        <ele>188</ele>
        <time>2017-09-09T10:05:04Z</time>
      </trkpt>
      <trkpt lat="59.243831457852" lon="17.840570641401">
        <ele>189.4</ele>
        <time>2017-09-09T10:05:09Z</time>
      </trkpt>
      <trkpt lat="59.24364722369" lon="17.840203430362">
        <ele>190.6</ele>
        <time>2017-09-09T10:05:13Z</time>
      </trkpt>
      <trkpt lat="59.243311444776" lon="17.839298939533">
        <ele>191.8</ele>
        <time>2017-09-09T10:05:21Z</time>
      </trkpt>
      <trkpt lat="59.243052779342" lon="17.838313898645">
        <ele>192</ele>
        <time>2017-09-09T10:05:29Z</time>
      </trkpt>
      <trkpt lat="59.242956806587" lon="17.837212684623">
        <ele>192.4</ele>
        <time>2017-09-09T10:05:45Z</time>
      </trkpt>
      <trkpt lat="59.242947670316" lon="17.837155603884">
        <ele>193.6</ele>
        <time>2017-09-09T10:05:54Z</time>
      </trkpt>
      <trkpt lat="59.242895283441" lon="17.836998275621">
        <ele>193.6</ele>
        <time>2017-09-09T10:05:57Z</time>
      </trkpt>
      <trkpt lat="59.242698979343" lon="17.836829296517">
        <ele>193.6</ele>
        <time>2017-09-09T10:06:01Z</time>
      </trkpt>
      <trkpt lat="59.242246943476" lon="17.836703484198">
        <ele>192.6</ele>
        <time>2017-09-09T10:06:08Z</time>
      </trkpt>
      <trkpt lat="59.242189527461" lon="17.83665051059">
        <ele>192.4</ele>
        <time>2017-09-09T10:06:09Z</time>
      </trkpt>
      <trkpt lat="59.242153988205" lon="17.8360545575">
        <ele>192.4</ele>
        <time>2017-09-09T10:06:14Z</time>
      </trkpt>
      <trkpt lat="59.242209560202" lon="17.835426501733">
        <ele>192.4</ele>
        <time>2017-09-09T10:06:19Z</time>
      </trkpt>
      <trkpt lat="59.242230347314" lon="17.835110001189">
        <ele>194</ele>
        <time>2017-09-09T10:06:22Z</time>
      </trkpt>
      <trkpt lat="59.242268736416" lon="17.834787800953">
        <ele>195.4</ele>
        <time>2017-09-09T10:06:25Z</time>
      </trkpt>
      <trkpt lat="59.242282063637" lon="17.834673639475">
        <ele>195.8</ele>
        <time>2017-09-09T10:06:26Z</time>
      </trkpt>
      <trkpt lat="59.242313831038" lon="17.834434084773">
        <ele>196.6</ele>
        <time>2017-09-09T10:06:28Z</time>
      </trkpt>
      <trkpt lat="59.242351968683" lon="17.83420299579">
        <ele>197.6</ele>
        <time>2017-09-09T10:06:30Z</time>
      </trkpt>
      <trkpt lat="59.242411228716" lon="17.833879370631">
        <ele>198.6</ele>
        <time>2017-09-09T10:06:33Z</time>
      </trkpt>
      <trkpt lat="59.242511224783" lon="17.833274951822">
        <ele>200</ele>
        <time>2017-09-09T10:06:38Z</time>
      </trkpt>
      <trkpt lat="59.242621027673" lon="17.832610686247">
        <ele>201.2</ele>
        <time>2017-09-09T10:06:43Z</time>
      </trkpt>
      <trkpt lat="59.24280484274" lon="17.831476279901">
        <ele>201.2</ele>
        <time>2017-09-09T10:06:51Z</time>
      </trkpt>
      <trkpt lat="59.242992932576" lon="17.83062811544">
        <ele>201.2</ele>
        <time>2017-09-09T10:06:58Z</time>
      </trkpt>
      <trkpt lat="59.243145902251" lon="17.830247241904">
        <ele>202.2</ele>
        <time>2017-09-09T10:07:02Z</time>
      </trkpt>
      <trkpt lat="59.243260734281" lon="17.82997013629">
        <ele>203.4</ele>
        <time>2017-09-09T10:07:05Z</time>
      </trkpt>
      <trkpt lat="59.243296189718" lon="17.829871816603">
        <ele>203.8</ele>
        <time>2017-09-09T10:07:06Z</time>
      </trkpt>
      <trkpt lat="59.243359305425" lon="17.829666460053">
        <ele>204.8</ele>
        <time>2017-09-09T10:07:08Z</time>
      </trkpt>
      <trkpt lat="59.243433736697" lon="17.829345098007">
        <ele>205.6</ele>
        <time>2017-09-09T10:07:11Z</time>
      </trkpt>
      <trkpt lat="59.243450835773" lon="17.829231858538">
        <ele>206.2</ele>
        <time>2017-09-09T10:07:12Z</time>
      </trkpt>
      <trkpt lat="59.243481094432" lon="17.828795664462">
        <ele>207.6</ele>
        <time>2017-09-09T10:07:16Z</time>
      </trkpt>
      <trkpt lat="59.243475981473" lon="17.828567425325">
        <ele>208</ele>
        <time>2017-09-09T10:07:18Z</time>
      </trkpt>
      <trkpt lat="59.243466845202" lon="17.828446139232">
        <ele>208.6</ele>
        <time>2017-09-09T10:07:19Z</time>
      </trkpt>
      <trkpt lat="59.243436167448" lon="17.828194179318">
        <ele>209.4</ele>
        <time>2017-09-09T10:07:21Z</time>
      </trkpt>
      <trkpt lat="59.243411776119" lon="17.82806828318">
        <ele>210</ele>
        <time>2017-09-09T10:07:22Z</time>
      </trkpt>
      <trkpt lat="59.243310019853" lon="17.827721104882">
        <ele>210.8</ele>
        <time>2017-09-09T10:07:25Z</time>
      </trkpt>
      <trkpt lat="59.242990250368" lon="17.826792222724">
        <ele>211</ele>
        <time>2017-09-09T10:07:34Z</time>
      </trkpt>
      <trkpt lat="59.24280065179" lon="17.826712343217">
        <ele>210.8</ele>
        <time>2017-09-09T10:07:40Z</time>
      </trkpt>
      <trkpt lat="59.242794700641" lon="17.826716701805">
        <ele>210.8</ele>
        <time>2017-09-09T10:07:41Z</time>
      </trkpt>
      <trkpt lat="59.242764944896" lon="17.826722904411">
        <ele>211.6</ele>
        <time>2017-09-09T10:08:34Z</time>
      </trkpt>
      <trkpt lat="59.242422209005" lon="17.82698785627">
        <ele>211.2</ele>
        <time>2017-09-09T10:08:44Z</time>
      </trkpt>
      <trkpt lat="59.242231436961" lon="17.827180723789">
        <ele>210.4</ele>
        <time>2017-09-09T10:08:48Z</time>
      </trkpt>
      <trkpt lat="59.242176535516" lon="17.82722087309">
        <ele>210</ele>
        <time>2017-09-09T10:08:49Z</time>
      </trkpt>
      <trkpt lat="59.241921055204" lon="17.827326233573">
        <ele>209.4</ele>
        <time>2017-09-09T10:08:53Z</time>
      </trkpt>
      <trkpt lat="59.241342368828" lon="17.827339560794">
        <ele>208.2</ele>
        <time>2017-09-09T10:09:01Z</time>
      </trkpt>
      <trkpt lat="59.240965602423" lon="17.827307709574">
        <ele>207.2</ele>
        <time>2017-09-09T10:09:06Z</time>
      </trkpt>
      <trkpt lat="59.240702410763" lon="17.827253227224">
        <ele>206.2</ele>
        <time>2017-09-09T10:09:10Z</time>
      </trkpt>
      <trkpt lat="59.24064985625" lon="17.827213245561">
        <ele>206</ele>
        <time>2017-09-09T10:09:11Z</time>
      </trkpt>
      <trkpt lat="59.24053250965" lon="17.826812590741">
        <ele>205</ele>
        <time>2017-09-09T10:09:15Z</time>
      </trkpt>
      <trkpt lat="59.240344838909" lon="17.825690841064">
        <ele>204.6</ele>
        <time>2017-09-09T10:09:23Z</time>
      </trkpt>
      <trkpt lat="59.240156749073" lon="17.824612006715">
        <ele>204.6</ele>
        <time>2017-09-09T10:09:30Z</time>
      </trkpt>
      <trkpt lat="59.239987518512" lon="17.823505260639">
        <ele>204.8</ele>
        <time>2017-09-09T10:09:37Z</time>
      </trkpt>
      <trkpt lat="59.239729188354" lon="17.822360041642">
        <ele>204.8</ele>
        <time>2017-09-09T10:09:44Z</time>
      </trkpt>
      <trkpt lat="59.239549648056" lon="17.82147424245">
        <ele>204.2</ele>
        <time>2017-09-09T10:09:49Z</time>
      </trkpt>
      <trkpt lat="59.23949147767" lon="17.82069556394">
        <ele>203</ele>
        <time>2017-09-09T10:09:53Z</time>
      </trkpt>
      <trkpt lat="59.239469517092" lon="17.820123750722">
        <ele>201.6</ele>
        <time>2017-09-09T10:09:56Z</time>
      </trkpt>
      <trkpt lat="59.239447640333" lon="17.819204256292">
        <ele>200.6</ele>
        <time>2017-09-09T10:10:01Z</time>
      </trkpt>
      <trkpt lat="59.239530202048" lon="17.818111256532">
        <ele>200.6</ele>
        <time>2017-09-09T10:10:07Z</time>
      </trkpt>
      <trkpt lat="59.239667413751" lon="17.816905436398">
        <ele>200.8</ele>
        <time>2017-09-09T10:10:14Z</time>
      </trkpt>
      <trkpt lat="59.239681830619" lon="17.816052075159">
        <ele>201.8</ele>
        <time>2017-09-09T10:10:19Z</time>
      </trkpt>
      <trkpt lat="59.239638663834" lon="17.814877268055">
        <ele>202.2</ele>
        <time>2017-09-09T10:10:26Z</time>
      </trkpt>
      <trkpt lat="59.239609746279" lon="17.81421048791">
        <ele>202.8</ele>
        <time>2017-09-09T10:10:30Z</time>
      </trkpt>
      <trkpt lat="59.239571357177" lon="17.813382104733">
        <ele>204</ele>
        <time>2017-09-09T10:10:35Z</time>
      </trkpt>
      <trkpt lat="59.239537913396" lon="17.812301761642">
        <ele>205.2</ele>
        <time>2017-09-09T10:10:42Z</time>
      </trkpt>
      <trkpt lat="59.239524753813" lon="17.811538924923">
        <ele>206.6</ele>
        <time>2017-09-09T10:10:47Z</time>
      </trkpt>
      <trkpt lat="59.239547301124" lon="17.810426227698">
        <ele>207.2</ele>
        <time>2017-09-09T10:10:54Z</time>
      </trkpt>
      <trkpt lat="59.239717202237" lon="17.809299365062">
        <ele>207.2</ele>
        <time>2017-09-09T10:11:01Z</time>
      </trkpt>
      <trkpt lat="59.239981315906" lon="17.808226733319">
        <ele>207</ele>
        <time>2017-09-09T10:11:08Z</time>
      </trkpt>
      <trkpt lat="59.240192120691" lon="17.807124178193">
        <ele>206.6</ele>
        <time>2017-09-09T10:11:15Z</time>
      </trkpt>
      <trkpt lat="59.240249620525" lon="17.806287329297">
        <ele>206.4</ele>
        <time>2017-09-09T10:11:20Z</time>
      </trkpt>
      <trkpt lat="59.240173429054" lon="17.805173039511">
        <ele>206.4</ele>
        <time>2017-09-09T10:11:26Z</time>
      </trkpt>
      <trkpt lat="59.240056836825" lon="17.80410443108">
        <ele>205.8</ele>
        <time>2017-09-09T10:11:31Z</time>
      </trkpt>
      <trkpt lat="59.240031858763" lon="17.803880299074">
        <ele>205.2</ele>
        <time>2017-09-09T10:11:32Z</time>
      </trkpt>
      <trkpt lat="59.239987937607" lon="17.803428095569">
        <ele>203.4</ele>
        <time>2017-09-09T10:11:34Z</time>
      </trkpt>
      <trkpt lat="59.239936305103" lon="17.802963319214">
        <ele>201.6</ele>
        <time>2017-09-09T10:11:36Z</time>
      </trkpt>
      <trkpt lat="59.239887187169" lon="17.802484880362">
        <ele>199.6</ele>
        <time>2017-09-09T10:11:38Z</time>
      </trkpt>
      <trkpt lat="59.239853659569" lon="17.801994623031">
        <ele>197.8</ele>
        <time>2017-09-09T10:11:40Z</time>
      </trkpt>
      <trkpt lat="59.239843852746" lon="17.801747273162">
        <ele>196.6</ele>
        <time>2017-09-09T10:11:41Z</time>
      </trkpt>
      <trkpt lat="59.23985525213" lon="17.801244610619">
        <ele>195.4</ele>
        <time>2017-09-09T10:11:43Z</time>
      </trkpt>
      <trkpt lat="59.239903699512" lon="17.800737589488">
        <ele>194.2</ele>
        <time>2017-09-09T10:11:45Z</time>
      </trkpt>
      <trkpt lat="59.239964384468" lon="17.800235010764">
        <ele>192.2</ele>
        <time>2017-09-09T10:11:47Z</time>
      </trkpt>
      <trkpt lat="59.239995900412" lon="17.799986235972">
        <ele>191.2</ele>
        <time>2017-09-09T10:11:48Z</time>
      </trkpt>
      <trkpt lat="59.240057758834" lon="17.79948348961">
        <ele>189.6</ele>
        <time>2017-09-09T10:11:50Z</time>
      </trkpt>
      <trkpt lat="59.240119952532" lon="17.798992813184">
        <ele>188.4</ele>
        <time>2017-09-09T10:11:52Z</time>
      </trkpt>
      <trkpt lat="59.240245513394" lon="17.797775677485">
        <ele>187.6</ele>
        <time>2017-09-09T10:11:57Z</time>
      </trkpt>
      <trkpt lat="59.240266384325" lon="17.797537463887">
        <ele>187.2</ele>
        <time>2017-09-09T10:11:58Z</time>
      </trkpt>
      <trkpt lat="59.24037828269" lon="17.796398447496">
        <ele>186.6</ele>
        <time>2017-09-09T10:12:03Z</time>
      </trkpt>
      <trkpt lat="59.240474758359" lon="17.795336628404">
        <ele>186.6</ele>
        <time>2017-09-09T10:12:08Z</time>
      </trkpt>
      <trkpt lat="59.240577352815" lon="17.79411488266">
        <ele>187.4</ele>
        <time>2017-09-09T10:12:14Z</time>
      </trkpt>
      <trkpt lat="59.240717498183" lon="17.792933956769">
        <ele>187.8</ele>
        <time>2017-09-09T10:12:20Z</time>
      </trkpt>
      <trkpt lat="59.240788911971" lon="17.792557693278">
        <ele>188</ele>
        <time>2017-09-09T10:12:22Z</time>
      </trkpt>
      <trkpt lat="59.241032154709" lon="17.791465783165">
        <ele>188.4</ele>
        <time>2017-09-09T10:12:28Z</time>
      </trkpt>
      <trkpt lat="59.241277325284" lon="17.790404299349">
        <ele>188.6</ele>
        <time>2017-09-09T10:12:34Z</time>
      </trkpt>
      <trkpt lat="59.241536577451" lon="17.78939671115">
        <ele>189</ele>
        <time>2017-09-09T10:12:40Z</time>
      </trkpt>
      <trkpt lat="59.241654762241" lon="17.788871668934">
        <ele>189</ele>
        <time>2017-09-09T10:12:43Z</time>
      </trkpt>
      <trkpt lat="59.241899346083" lon="17.787821835959">
        <ele>189.2</ele>
        <time>2017-09-09T10:12:49Z</time>
      </trkpt>
      <trkpt lat="59.241993391001" lon="17.787260667754">
        <ele>189</ele>
        <time>2017-09-09T10:12:52Z</time>
      </trkpt>
      <trkpt lat="59.241967742387" lon="17.786058368018">
        <ele>188.6</ele>
        <time>2017-09-09T10:12:58Z</time>
      </trkpt>
      <trkpt lat="59.241860705524" lon="17.785480938927">
        <ele>188.6</ele>
        <time>2017-09-09T10:13:01Z</time>
      </trkpt>
      <trkpt lat="59.241577900218" lon="17.784404032415">
        <ele>188.4</ele>
        <time>2017-09-09T10:13:07Z</time>
      </trkpt>
      <trkpt lat="59.241518053452" lon="17.784247123247">
        <ele>188.4</ele>
        <time>2017-09-09T10:13:08Z</time>
      </trkpt>
      <trkpt lat="59.241241283114" lon="17.783703808489">
        <ele>188</ele>
        <time>2017-09-09T10:13:12Z</time>
      </trkpt>
      <trkpt lat="59.241165846014" lon="17.78359056902">
        <ele>188</ele>
        <time>2017-09-09T10:13:13Z</time>
      </trkpt>
      <trkpt lat="59.240833587498" lon="17.783277002141">
        <ele>188</ele>
        <time>2017-09-09T10:13:17Z</time>
      </trkpt>
      <trkpt lat="59.240224558644" lon="17.78299545412">
        <ele>188.6</ele>
        <time>2017-09-09T10:13:24Z</time>
      </trkpt>
      <trkpt lat="59.239786604369" lon="17.782859583521">
        <ele>189.2</ele>
        <time>2017-09-09T10:13:29Z</time>
      </trkpt>
      <trkpt lat="59.23917212728" lon="17.782645509795">
        <ele>190</ele>
        <time>2017-09-09T10:13:37Z</time>
      </trkpt>
      <trkpt lat="59.239107670469" lon="17.782619442086">
        <ele>190.2</ele>
        <time>2017-09-09T10:13:38Z</time>
      </trkpt>
      <trkpt lat="59.238861661704" lon="17.782524223702">
        <ele>191.4</ele>
        <time>2017-09-09T10:13:42Z</time>
      </trkpt>
      <trkpt lat="59.238758815791" lon="17.782475860139">
        <ele>192.6</ele>
        <time>2017-09-09T10:13:44Z</time>
      </trkpt>
      <trkpt lat="59.23866166957" lon="17.782420371961">
        <ele>193.8</ele>
        <time>2017-09-09T10:13:46Z</time>
      </trkpt>
      <trkpt lat="59.238446170921" lon="17.782320208256">
        <ele>194.8</ele>
        <time>2017-09-09T10:13:50Z</time>
      </trkpt>
      <trkpt lat="59.238263277863" lon="17.782259188024">
        <ele>195.8</ele>
        <time>2017-09-09T10:13:53Z</time>
      </trkpt>
      <trkpt lat="59.238002265497" lon="17.782188193331">
        <ele>197</ele>
        <time>2017-09-09T10:13:57Z</time>
      </trkpt>
      <trkpt lat="59.237417125058" lon="17.781981830953">
        <ele>197.4</ele>
        <time>2017-09-09T10:14:05Z</time>
      </trkpt>
      <trkpt lat="59.23690566152" lon="17.781797932067">
        <ele>196</ele>
        <time>2017-09-09T10:14:11Z</time>
      </trkpt>
      <trkpt lat="59.236635429064" lon="17.781703132778">
        <ele>195</ele>
        <time>2017-09-09T10:14:14Z</time>
      </trkpt>
      <trkpt lat="59.236365448065" lon="17.781613614086">
        <ele>193.6</ele>
        <time>2017-09-09T10:14:17Z</time>
      </trkpt>
      <trkpt lat="59.236103346052" lon="17.781526190869">
        <ele>192.6</ele>
        <time>2017-09-09T10:14:20Z</time>
      </trkpt>
      <trkpt lat="59.2355410882" lon="17.78133416154">
        <ele>192.2</ele>
        <time>2017-09-09T10:14:27Z</time>
      </trkpt>
      <trkpt lat="59.234995258872" lon="17.78114975974">
        <ele>192.6</ele>
        <time>2017-09-09T10:14:34Z</time>
      </trkpt>
      <trkpt lat="59.234760900948" lon="17.781095025933">
        <ele>194</ele>
        <time>2017-09-09T10:14:37Z</time>
      </trkpt>
      <trkpt lat="59.234214652525" lon="17.781036771728">
        <ele>194.6</ele>
        <time>2017-09-09T10:14:44Z</time>
      </trkpt>
      <trkpt lat="59.23366605717" lon="17.781102988738">
        <ele>195.2</ele>
        <time>2017-09-09T10:14:52Z</time>
      </trkpt>
      <trkpt lat="59.233494144401" lon="17.781141713116">
        <ele>196.2</ele>
        <time>2017-09-09T10:14:55Z</time>
      </trkpt>
      <trkpt lat="59.233339246889" lon="17.781179599304">
        <ele>197.8</ele>
        <time>2017-09-09T10:14:58Z</time>
      </trkpt>
      <trkpt lat="59.233243693229" lon="17.781211869619">
        <ele>198.8</ele>
        <time>2017-09-09T10:15:00Z</time>
      </trkpt>
      <trkpt lat="59.23314470299" lon="17.781254449671">
        <ele>199.8</ele>
        <time>2017-09-09T10:15:02Z</time>
      </trkpt>
      <trkpt lat="59.233095585056" lon="17.781279260095">
        <ele>200.2</ele>
        <time>2017-09-09T10:15:03Z</time>
      </trkpt>
      <trkpt lat="59.232965078873" lon="17.781334412997">
        <ele>201.8</ele>
        <time>2017-09-09T10:15:06Z</time>
      </trkpt>
      <trkpt lat="59.23279685414" lon="17.781432816503">
        <ele>203</ele>
        <time>2017-09-09T10:15:10Z</time>
      </trkpt>
      <trkpt lat="59.2326660965" lon="17.781515545856">
        <ele>204.2</ele>
        <time>2017-09-09T10:15:13Z</time>
      </trkpt>
      <trkpt lat="59.232627958855" lon="17.781543625221">
        <ele>204.4</ele>
        <time>2017-09-09T10:15:14Z</time>
      </trkpt>
      <trkpt lat="59.232446658358" lon="17.781679328182">
        <ele>205.4</ele>
        <time>2017-09-09T10:15:18Z</time>
      </trkpt>
      <trkpt lat="59.232228226044" lon="17.781868423846">
        <ele>206.6</ele>
        <time>2017-09-09T10:15:22Z</time>
      </trkpt>
      <trkpt lat="59.231943828177" lon="17.782162125622">
        <ele>207.6</ele>
        <time>2017-09-09T10:15:27Z</time>
      </trkpt>
      <trkpt lat="59.231468742085" lon="17.782665793993">
        <ele>208.6</ele>
        <time>2017-09-09T10:15:35Z</time>
      </trkpt>
      <trkpt lat="59.231088287644" lon="17.783080362767">
        <ele>209</ele>
        <time>2017-09-09T10:15:41Z</time>
      </trkpt>
      <trkpt lat="59.230595431924" lon="17.783625773">
        <ele>209.2</ele>
        <time>2017-09-09T10:15:48Z</time>
      </trkpt>
      <trkpt lat="59.230069216242" lon="17.784160202944">
        <ele>209.2</ele>
        <time>2017-09-09T10:15:55Z</time>
      </trkpt>
      <trkpt lat="59.229492876798" lon="17.784521630472">
        <ele>208.8</ele>
        <time>2017-09-09T10:16:02Z</time>
      </trkpt>
      <trkpt lat="59.228893654767" lon="17.784742912632">
        <ele>208.6</ele>
        <time>2017-09-09T10:16:09Z</time>
      </trkpt>
      <trkpt lat="59.228282111343" lon="17.784964949163">
        <ele>208.6</ele>
        <time>2017-09-09T10:16:16Z</time>
      </trkpt>
      <trkpt lat="59.227652211558" lon="17.785199139449">
        <ele>208.4</ele>
        <time>2017-09-09T10:16:22Z</time>
      </trkpt>
      <trkpt lat="59.227426486991" lon="17.785286981761">
        <ele>207.8</ele>
        <time>2017-09-09T10:16:24Z</time>
      </trkpt>
      <trkpt lat="59.227083667281" lon="17.785407597302">
        <ele>206</ele>
        <time>2017-09-09T10:16:27Z</time>
      </trkpt>
      <trkpt lat="59.226850147547" lon="17.785469791">
        <ele>204.4</ele>
        <time>2017-09-09T10:16:29Z</time>
      </trkpt>
      <trkpt lat="59.226609251741" lon="17.785532068517">
        <ele>202.6</ele>
        <time>2017-09-09T10:16:31Z</time>
      </trkpt>
      <trkpt lat="59.226485115802" lon="17.78555277181">
        <ele>201.4</ele>
        <time>2017-09-09T10:16:32Z</time>
      </trkpt>
      <trkpt lat="59.226359471121" lon="17.785559896425">
        <ele>199.6</ele>
        <time>2017-09-09T10:16:33Z</time>
      </trkpt>
      <trkpt lat="59.22610474518" lon="17.785534163992">
        <ele>198</ele>
        <time>2017-09-09T10:16:35Z</time>
      </trkpt>
      <trkpt lat="59.225850438334" lon="17.785455877046">
        <ele>196.4</ele>
        <time>2017-09-09T10:16:37Z</time>
      </trkpt>
      <trkpt lat="59.225601914999" lon="17.785332076383">
        <ele>194.8</ele>
        <time>2017-09-09T10:16:39Z</time>
      </trkpt>
      <trkpt lat="59.225360851555" lon="17.785165779487">
        <ele>193.6</ele>
        <time>2017-09-09T10:16:41Z</time>
      </trkpt>
      <trkpt lat="59.225130097848" lon="17.78495933329">
        <ele>192.2</ele>
        <time>2017-09-09T10:16:43Z</time>
      </trkpt>
      <trkpt lat="59.224905798204" lon="17.784737464397">
        <ele>190.6</ele>
        <time>2017-09-09T10:16:45Z</time>
      </trkpt>
      <trkpt lat="59.224686946795" lon="17.784519954092">
        <ele>189.4</ele>
        <time>2017-09-09T10:16:47Z</time>
      </trkpt>
      <trkpt lat="59.224362567265" lon="17.784213428009">
        <ele>188.2</ele>
        <time>2017-09-09T10:16:50Z</time>
      </trkpt>
      <trkpt lat="59.223841464542" lon="17.783689140164">
        <ele>187.4</ele>
        <time>2017-09-09T10:16:55Z</time>
      </trkpt>
      <trkpt lat="59.223635856535" lon="17.783484621804">
        <ele>187</ele>
        <time>2017-09-09T10:16:57Z</time>
      </trkpt>
      <trkpt lat="59.223132691078" lon="17.782988664781">
        <ele>186.8</ele>
        <time>2017-09-09T10:17:02Z</time>
      </trkpt>
      <trkpt lat="59.222936219342" lon="17.78278590662">
        <ele>186</ele>
        <time>2017-09-09T10:17:04Z</time>
      </trkpt>
      <trkpt lat="59.222443447441" lon="17.782306797216">
        <ele>185.6</ele>
        <time>2017-09-09T10:17:09Z</time>
      </trkpt>
      <trkpt lat="59.2219624102" lon="17.781834896246">
        <ele>185.4</ele>
        <time>2017-09-09T10:17:14Z</time>
      </trkpt>
      <trkpt lat="59.221381628349" lon="17.781344555096">
        <ele>185</ele>
        <time>2017-09-09T10:17:20Z</time>
      </trkpt>
      <trkpt lat="59.221284230671" lon="17.781270878195">
        <ele>185</ele>
        <time>2017-09-09T10:17:21Z</time>
      </trkpt>
      <trkpt lat="59.220687942305" lon="17.780902577509">
        <ele>184.4</ele>
        <time>2017-09-09T10:17:27Z</time>
      </trkpt>
      <trkpt lat="59.22019466749" lon="17.780608289">
        <ele>183.8</ele>
        <time>2017-09-09T10:17:32Z</time>
      </trkpt>
      <trkpt lat="59.219785211675" lon="17.780353563059">
        <ele>182.8</ele>
        <time>2017-09-09T10:17:36Z</time>
      </trkpt>
      <trkpt lat="59.219469465502" lon="17.780164299757">
        <ele>181.6</ele>
        <time>2017-09-09T10:17:39Z</time>
      </trkpt>
      <trkpt lat="59.219157072089" lon="17.779976629016">
        <ele>180.2</ele>
        <time>2017-09-09T10:17:42Z</time>
      </trkpt>
      <trkpt lat="59.218851635653" lon="17.779801028211">
        <ele>179.2</ele>
        <time>2017-09-09T10:17:45Z</time>
      </trkpt>
      <trkpt lat="59.218459362733" lon="17.779577063843">
        <ele>178</ele>
        <time>2017-09-09T10:17:49Z</time>
      </trkpt>
      <trkpt lat="59.217983354632" lon="17.779292246881">
        <ele>177.8</ele>
        <time>2017-09-09T10:17:54Z</time>
      </trkpt>
      <trkpt lat="59.217414894174" lon="17.778944565669">
        <ele>178.6</ele>
        <time>2017-09-09T10:18:00Z</time>
      </trkpt>
      <trkpt lat="59.216876105642" lon="17.778496720752">
        <ele>179</ele>
        <time>2017-09-09T10:18:06Z</time>
      </trkpt>
      <trkpt lat="59.216715592257" lon="17.778299494645">
        <ele>179</ele>
        <time>2017-09-09T10:18:08Z</time>
      </trkpt>
      <trkpt lat="59.216274201403" lon="17.777679988416">
        <ele>179</ele>
        <time>2017-09-09T10:18:14Z</time>
      </trkpt>
      <trkpt lat="59.215842449734" lon="17.776868871953">
        <ele>179.4</ele>
        <time>2017-09-09T10:18:21Z</time>
      </trkpt>
      <trkpt lat="59.215574145115" lon="17.776246515878">
        <ele>180.2</ele>
        <time>2017-09-09T10:18:26Z</time>
      </trkpt>
      <trkpt lat="59.215231073948" lon="17.775326937629">
        <ele>180.2</ele>
        <time>2017-09-09T10:18:33Z</time>
      </trkpt>
      <trkpt lat="59.215050444003" lon="17.774225555969">
        <ele>180.4</ele>
        <time>2017-09-09T10:18:40Z</time>
      </trkpt>
      <trkpt lat="59.215009372693" lon="17.773227355498">
        <ele>180.6</ele>
        <time>2017-09-09T10:18:46Z</time>
      </trkpt>
      <trkpt lat="59.215165946585" lon="17.772095463722">
        <ele>180.8</ele>
        <time>2017-09-09T10:18:53Z</time>
      </trkpt>
      <trkpt lat="59.215381361415" lon="17.771322987818">
        <ele>181.2</ele>
        <time>2017-09-09T10:18:59Z</time>
      </trkpt>
      <trkpt lat="59.215586047413" lon="17.770737260646">
        <ele>182.6</ele>
        <time>2017-09-09T10:19:04Z</time>
      </trkpt>
      <trkpt lat="59.215718481433" lon="17.77038572376">
        <ele>184.2</ele>
        <time>2017-09-09T10:19:07Z</time>
      </trkpt>
      <trkpt lat="59.215906319812" lon="17.769913068419">
        <ele>185.6</ele>
        <time>2017-09-09T10:19:11Z</time>
      </trkpt>
      <trkpt lat="59.21622164689" lon="17.769031963091">
        <ele>186</ele>
        <time>2017-09-09T10:19:18Z</time>
      </trkpt>
      <trkpt lat="59.216490035328" lon="17.768069134238">
        <ele>185.8</ele>
        <time>2017-09-09T10:19:25Z</time>
      </trkpt>
      <trkpt lat="59.216723303605" lon="17.767056768356">
        <ele>185.6</ele>
        <time>2017-09-09T10:19:32Z</time>
      </trkpt>
      <trkpt lat="59.216878871669" lon="17.76600450463">
        <ele>185.8</ele>
        <time>2017-09-09T10:19:39Z</time>
      </trkpt>
      <trkpt lat="59.21699697264" lon="17.765025331072">
        <ele>187</ele>
        <time>2017-09-09T10:19:46Z</time>
      </trkpt>
      <trkpt lat="59.217075511043" lon="17.764364082981">
        <ele>188</ele>
        <time>2017-09-09T10:19:51Z</time>
      </trkpt>
      <trkpt lat="59.217127478823" lon="17.763974743726">
        <ele>189</ele>
        <time>2017-09-09T10:19:54Z</time>
      </trkpt>
      <trkpt lat="59.217224373587" lon="17.763314333825">
        <ele>190.6</ele>
        <time>2017-09-09T10:19:59Z</time>
      </trkpt>
      <trkpt lat="59.217316742125" lon="17.762775880569">
        <ele>191.8</ele>
        <time>2017-09-09T10:20:03Z</time>
      </trkpt>
      <trkpt lat="59.217568534401" lon="17.761750941837">
        <ele>192.6</ele>
        <time>2017-09-09T10:20:11Z</time>
      </trkpt>
      <trkpt lat="59.217660483844" lon="17.761427065221">
        <ele>192.8</ele>
        <time>2017-09-09T10:20:14Z</time>
      </trkpt>
      <trkpt lat="59.217683869345" lon="17.761320028358">
        <ele>192.8</ele>
        <time>2017-09-09T10:20:15Z</time>
      </trkpt>
      <trkpt lat="59.217423192255" lon="17.760680573207">
        <ele>193.8</ele>
        <time>2017-09-09T10:20:22Z</time>
      </trkpt>
      <trkpt lat="59.216930252716" lon="17.760110939283">
        <ele>195</ele>
        <time>2017-09-09T10:20:30Z</time>
      </trkpt>
      <trkpt lat="59.216415436418" lon="17.759556895693">
        <ele>195.8</ele>
        <time>2017-09-09T10:20:38Z</time>
      </trkpt>
      <trkpt lat="59.216280823104" lon="17.759402417276">
        <ele>196</ele>
        <time>2017-09-09T10:20:40Z</time>
      </trkpt>
      <trkpt lat="59.215747985721" lon="17.758797160277">
        <ele>196.4</ele>
        <time>2017-09-09T10:20:48Z</time>
      </trkpt>
      <trkpt lat="59.215277425855" lon="17.758275051726">
        <ele>197</ele>
        <time>2017-09-09T10:20:55Z</time>
      </trkpt>
      <trkpt lat="59.215205425334" lon="17.758192322373">
        <ele>197</ele>
        <time>2017-09-09T10:20:56Z</time>
      </trkpt>
      <trkpt lat="59.214694883805" lon="17.757631489444">
        <ele>197.6</ele>
        <time>2017-09-09T10:21:03Z</time>
      </trkpt>
      <trkpt lat="59.214155759997" lon="17.75707945751">
        <ele>198</ele>
        <time>2017-09-09T10:21:11Z</time>
      </trkpt>
      <trkpt lat="59.214091554643" lon="17.757018353459">
        <ele>198.2</ele>
        <time>2017-09-09T10:21:12Z</time>
      </trkpt>
      <trkpt lat="59.213699449361" lon="17.756683077459">
        <ele>199.2</ele>
        <time>2017-09-09T10:21:18Z</time>
      </trkpt>
      <trkpt lat="59.213146076323" lon="17.756213858697">
        <ele>200.4</ele>
        <time>2017-09-09T10:21:26Z</time>
      </trkpt>
      <trkpt lat="59.212613490397" lon="17.75576685197">
        <ele>200.8</ele>
        <time>2017-09-09T10:21:33Z</time>
      </trkpt>
      <trkpt lat="59.212097668271" lon="17.755300566873">
        <ele>199.6</ele>
        <time>2017-09-09T10:21:39Z</time>
      </trkpt>
      <trkpt lat="59.212008568674" lon="17.755218256615">
        <ele>199.2</ele>
        <time>2017-09-09T10:21:40Z</time>
      </trkpt>
      <trkpt lat="59.211653595209" lon="17.754871832688">
        <ele>198</ele>
        <time>2017-09-09T10:21:44Z</time>
      </trkpt>
      <trkpt lat="59.211396354698" lon="17.75457746036">
        <ele>196.8</ele>
        <time>2017-09-09T10:21:47Z</time>
      </trkpt>
      <trkpt lat="59.210902325512" lon="17.753988715704">
        <ele>195.8</ele>
        <time>2017-09-09T10:21:53Z</time>
      </trkpt>
      <trkpt lat="59.210821691634" lon="17.753890479836">
        <ele>195.6</ele>
        <time>2017-09-09T10:21:54Z</time>
      </trkpt>
      <trkpt lat="59.210345683533" lon="17.753286228665">
        <ele>194.8</ele>
        <time>2017-09-09T10:22:00Z</time>
      </trkpt>
      <trkpt lat="59.21018500251" lon="17.753096127173">
        <ele>194.6</ele>
        <time>2017-09-09T10:22:02Z</time>
      </trkpt>
      <trkpt lat="59.209898592987" lon="17.7527300896">
        <ele>193.8</ele>
        <time>2017-09-09T10:22:07Z</time>
      </trkpt>
      <trkpt lat="59.209844445913" lon="17.752730592514">
        <ele>193.4</ele>
        <time>2017-09-09T10:22:08Z</time>
      </trkpt>
      <trkpt lat="59.209478659797" lon="17.753281283344">
        <ele>192.8</ele>
        <time>2017-09-09T10:22:15Z</time>
      </trkpt>
      <trkpt lat="59.209176073207" lon="17.75347188775">
        <ele>192.6</ele>
        <time>2017-09-09T10:22:19Z</time>
      </trkpt>
      <trkpt lat="59.208832834402" lon="17.75352720829">
        <ele>192.6</ele>
        <time>2017-09-09T10:22:23Z</time>
      </trkpt>
      <trkpt lat="59.208227661222" lon="17.753733989763">
        <ele>192</ele>
        <time>2017-09-09T10:22:30Z</time>
      </trkpt>
      <trkpt lat="59.207689794699" lon="17.754039007104">
        <ele>192.2</ele>
        <time>2017-09-09T10:22:37Z</time>
      </trkpt>
      <trkpt lat="59.207422244451" lon="17.754223325085">
        <ele>192.6</ele>
        <time>2017-09-09T10:22:41Z</time>
      </trkpt>
    </trkseg>
  </trk>
</gpx>